Data for 03/13/2011

Time Sea-Level Adjusted Pressure Absolute Pressure Temperature Relative Humidity Dew Point Precipitation   
(mb) (inHg) (mb) (inHg) (C) (F) (%) (C) (F) (mm) (in)
00:01 1020 30.12 849 25.07 -3.8 25.1 70 -8.5 16.7 -3.515 -0.138
00:02 1020 30.12 849 25.07 -4 24.8 71 -8.5 16.7 -3.64 -0.143
00:03 1020 30.12 849 25.07 -4 24.7 72 -8.4 16.8 -3.674 -0.145
00:04 1020 30.12 849 25.07 -4.1 24.7 72 -8.4 16.9 -3.759 -0.148
00:05 1020 30.12 849 25.07 -4.2 24.5 72 -8.4 16.8 -3.81 -0.15
00:06 1020 30.12 849 25.07 -4.2 24.5 72 -8.4 16.8 -3.832 -0.151
00:07 1020 30.12 849 25.07 -4.2 24.4 72 -8.5 16.7 -3.866 -0.152
00:08 1020 30.12 849 25.07 -4.2 24.4 72 -8.5 16.7 -3.872 -0.152
00:09 1020 30.12 849 25.07 -4.3 24.3 72 -8.5 16.7 -3.889 -0.153
00:10 1020 30.12 849 25.07 -4.2 24.5 72 -8.5 16.8 -3.798 -0.15
00:11 1020 30.12 849 25.07 -4.1 24.6 72 -8.4 16.9 -3.725 -0.147
00:12 1020 30.12 849 25.07 -4 24.8 72 -8.3 17 -3.662 -0.144
00:13 1020 30.12 849 25.07 -4 24.8 72 -8.3 17.1 -3.628 -0.143
00:14 1020 30.12 849 25.07 -4 24.9 72 -8.3 17.1 -3.588 -0.141
00:15 1020 30.12 849 25.07 -3.9 24.9 72 -8.3 17 -3.56 -0.14
00:16 1020 30.12 849 25.07 -3.9 25 72 -8.3 17 -3.588 -0.141
00:17 1020 30.12 849 25.07 -3.9 25 71 -8.4 16.9 -3.503 -0.138
00:18 1020 30.12 849 25.07 -3.8 25.2 71 -8.3 17 -3.424 -0.135
00:19 1020 30.12 849 25.07 -3.7 25.3 70 -8.4 16.9 -3.396 -0.134
00:20 1020 30.12 849 25.07 -3.7 25.3 70 -8.4 16.9 -3.384 -0.133
00:21 1020 30.12 849 25.07 -3.7 25.3 70 -8.5 16.7 -3.367 -0.133
00:22 1020 30.12 849 25.07 -3.7 25.3 69 -8.6 16.6 -3.356 -0.132
00:23 1020 30.12 849 25.07 -3.7 25.4 69 -8.5 16.6 -3.294 -0.13
00:24 1020 30.12 849 25.07 -3.7 25.3 70 -8.5 16.7 -3.379 -0.133
00:25 1020 30.12 849 25.07 -3.8 25.1 69 -8.7 16.4 -3.435 -0.135
00:26 1020 30.12 849 25.07 -3.8 25.2 69 -8.7 16.4 -3.396 -0.134
00:27 1020 30.12 849 25.07 -3.7 25.3 69 -8.7 16.4 -3.362 -0.132
00:28 1020 30.12 849 25.07 -3.7 25.3 69 -8.6 16.5 -3.328 -0.131
00:29 1020 30.12 849 25.07 -3.7 25.3 69 -8.6 16.5 -3.299 -0.13
00:30 1020 30.12 849 25.07 -3.7 25.4 69 -8.6 16.6 -3.305 -0.13
00:31 1020 30.12 849 25.07 -3.6 25.5 69 -8.5 16.7 -3.277 -0.129
00:32 1020 30.12 849 25.07 -3.6 25.5 69 -8.5 16.7 -3.22 -0.127
00:33 1020 30.12 849 25.07 -3.6 25.6 69 -8.5 16.7 -3.26 -0.128
00:34 1020 30.12 849 25.07 -3.6 25.5 69 -8.5 16.8 -3.248 -0.128
00:35 1020 30.12 849 25.07 -3.7 25.4 69 -8.5 16.7 -3.299 -0.13
00:36 1020 30.12 849 25.07 -3.7 25.4 70 -8.4 16.8 -3.35 -0.132
00:37 1020 30.12 849 25.07 -3.7 25.3 70 -8.5 16.7 -3.373 -0.133
00:38 1020 30.12 849 25.07 -3.7 25.3 70 -8.5 16.7 -3.39 -0.133
00:39 1020 30.12 849 25.07 -3.8 25.1 69 -8.6 16.5 -3.43 -0.135
00:40 1020 30.12 849 25.07 -3.8 25.1 70 -8.6 16.5 -3.447 -0.136
00:41 1020 30.12 849 25.07 -3.8 25.2 69 -8.7 16.3 -3.384 -0.133
00:42 1020 30.12 849 25.07 -3.7 25.4 67 -8.9 16.1 -3.288 -0.129
00:43 1020 30.12 849 25.07 -3.6 25.6 67 -8.9 16 -3.192 -0.126
00:44 1020 30.12 849 25.07 -3.4 25.8 66 -8.9 15.9 -3.095 -0.122
00:45 1020 30.12 849 25.07 -3.3 26.1 65 -8.9 15.9 -2.942 -0.116
00:46 1020 30.12 849 25.07 -3.2 26.3 64 -9 15.8 -2.851 -0.112
00:47 1020 30.12 849 25.07 -3.2 26.3 64 -9 15.8 -2.8 -0.11
00:48 1020 30.12 849 25.07 -3.1 26.5 64 -8.9 15.9 -2.772 -0.109
00:49 1020 30.12 849 25.07 -3 26.5 64 -8.9 15.9 -2.749 -0.108
00:50 1020 30.12 849 25.07 -3 26.5 64 -8.9 16 -2.681 -0.106
00:51 1020 30.12 849 25.07 -3 26.6 65 -8.7 16.3 -2.704 -0.106
00:52 1020 30.12 849 25.07 -3.2 26.3 66 -8.7 16.3 -2.778 -0.109
00:53 1020 30.12 849 25.07 -3.3 26 67 -8.6 16.6 -2.937 -0.116
00:54 1020 30.12 849 25.07 -3.6 25.6 69 -8.5 16.7 -3.175 -0.125
00:55 1020 30.12 849 25.07 -3.9 24.9 71 -8.5 16.6 -3.52 -0.139
00:56 1020 30.12 849 25.07 -4.1 24.6 71 -8.7 16.3 -3.679 -0.145
00:57 1020 30.12 849 25.07 -4 24.8 70 -8.7 16.4 -3.651 -0.144
00:58 1020 30.12 849 25.07 -4 24.7 70 -8.8 16.2 -3.634 -0.143
00:59 1020 30.12 849 25.07 -3.9 25 69 -8.8 16.1 -3.583 -0.141
01:00 1020 30.12 849 25.07 -3.8 25.2 68 -8.9 16 -3.469 -0.137
01:01 1020 30.12 849 25.07 -3.7 25.4 66 -9 15.7 -3.418 -0.135
01:02 1020 30.12 849 25.07 -3.5 25.7 66 -9 15.8 -3.248 -0.128
01:03 1020 30.12 849 25.07 -3.3 26 64 -9.1 15.6 -3.067 -0.121
01:04 1020 30.12 849 25.07 -3.1 26.3 64 -9 15.7 -2.886 -0.114
01:05 1020 30.12 849 25.07 -3 26.6 63 -9.1 15.7 -2.744 -0.108
01:06 1020 30.12 849 25.07 -2.9 26.7 63 -9 15.8 -2.664 -0.105
01:07 1020 30.12 849 25.07 -2.9 26.7 64 -8.8 16.1 -2.63 -0.104
01:08 1020 30.12 849 25.07 -3 26.7 64 -8.8 16.1 -2.642 -0.104
01:09 1020 30.12 849 25.07 -2.9 26.7 63 -9 15.7 -2.579 -0.102
01:10 1020 30.12 849 25.07 -2.9 26.9 64 -8.8 16.1 -2.523 -0.099
01:11 1020 30.12 849 25.07 -2.9 26.8 63 -8.9 16 -2.54 -0.1
01:12 1020 30.12 849 25.07 -2.9 26.7 63 -9 15.8 -2.551 -0.1
01:13 1020 30.12 849 25.07 -2.9 26.9 64 -8.7 16.3 -2.506 -0.099
01:14 1020 30.12 849 25.07 -2.9 26.8 65 -8.6 16.5 -2.528 -0.1
01:15 1020 30.12 849 25.07 -3 26.7 65 -8.6 16.5 -2.591 -0.102
01:16 1020 30.12 849 25.07 -3 26.7 65 -8.7 16.4 -2.602 -0.102
01:17 1020 30.12 849 25.07 -3 26.6 64 -8.8 16.2 -2.664 -0.105
01:18 1020 30.12 850 25.1 -3 26.5 65 -8.7 16.3 -2.687 -0.106
01:19 1020 30.12 850 25.1 -3.1 26.3 66 -8.7 16.4 -2.806 -0.11
01:20 1020 30.12 850 25.1 -3.2 26.2 66 -8.7 16.4 -2.897 -0.114
01:21 1020 30.12 850 25.1 -3.3 26 67 -8.6 16.6 -2.976 -0.117
01:22 1020 30.12 850 25.1 -3.4 25.8 67 -8.6 16.5 -3.056 -0.12
01:23 1020 30.12 850 25.1 -3.4 25.8 67 -8.6 16.5 -3.056 -0.12
01:24 1020 30.12 850 25.1 -3.4 25.9 67 -8.6 16.4 -3.061 -0.121
01:25 1020 30.12 850 25.1 -3.4 25.8 68 -8.6 16.6 -3.084 -0.121
01:26 1020 30.12 850 25.1 -3.4 25.8 68 -8.5 16.6 -3.107 -0.122
01:27 1020 30.12 850 25.1 -3.5 25.6 69 -8.5 16.7 -3.18 -0.125
01:28 1020 30.12 850 25.1 -3.6 25.4 68 -8.6 16.5 -3.299 -0.13
01:29 1020 30.12 850 25.1 -3.7 25.4 69 -8.5 16.6 -3.305 -0.13
01:30 1020 30.12 850 25.1 -3.7 25.3 68 -8.8 16.2 -3.356 -0.132
01:31 1020 30.12 850 25.1 -3.7 25.3 69 -8.6 16.5 -3.424 -0.135
01:32 1020 30.12 850 25.1 -3.8 25.1 68 -8.8 16.1 -3.481 -0.137
01:33 1020 30.12 850 25.1 -3.8 25.1 69 -8.6 16.5 -3.424 -0.135
01:34 1020 30.12 850 25.1 -3.9 25.1 69 -8.8 16.1 -3.486 -0.137
01:35 1020 30.12 850 25.1 -3.9 25.1 69 -8.7 16.3 -3.503 -0.138
01:36 1020 30.12 850 25.1 -3.9 25 67 -9.1 15.7 -3.452 -0.136
01:37 1020 30.12 850 25.1 -3.7 25.3 68 -8.7 16.3 -3.328 -0.131
01:38 1020 30.12 850 25.1 -3.7 25.4 67 -9 15.7 -3.311 -0.13
01:39 1020 30.12 850 25.1 -3.5 25.7 66 -9 15.9 -3.101 -0.122
01:40 1020 30.12 850 25.1 -3.4 25.8 67 -8.7 16.4 -3.022 -0.119
01:41 1020 30.12 850 25.1 -3.4 25.8 67 -8.8 16.2 -3.056 -0.12
01:42 1020 30.12 850 25.1 -3.4 25.9 67 -8.7 16.4 -2.993 -0.118
01:43 1020 30.12 850 25.1 -3.3 26 66 -8.9 16 -2.954 -0.116
01:44 1020 30.12 850 25.1 -3.2 26.2 66 -8.8 16.2 -2.851 -0.112
01:45 1020 30.12 850 25.1 -3.2 26.3 65 -8.9 16 -2.783 -0.11
01:46 1020 30.12 850 25.1 -3.1 26.4 65 -8.7 16.3 -2.772 -0.109
01:47 1020 30.12 850 25.1 -3.1 26.4 66 -8.6 16.5 -2.732 -0.108
01:48 1020 30.12 850 25.1 -3.1 26.5 66 -8.7 16.4 -2.761 -0.109
01:49 1020 30.12 850 25.1 -3.1 26.4 66 -8.6 16.6 -2.761 -0.109
01:50 1020 30.12 850 25.1 -3.1 26.4 67 -8.4 16.8 -2.755 -0.108
01:51 1020 30.12 850 25.1 -3.2 26.3 67 -8.4 16.9 -2.778 -0.109
01:52 1020 30.12 850 25.1 -3.2 26.2 68 -8.4 17 -2.84 -0.112
01:53 1020 30.12 850 25.1 -3.3 26.1 67 -8.6 16.6 -2.903 -0.114
01:54 1020 30.12 850 25.1 -3.3 26 68 -8.4 16.8 -2.971 -0.117
01:55 1020 30.12 850 25.1 -3.4 25.9 68 -8.5 16.7 -3.039 -0.12
01:56 1020 30.12 850 25.1 -3.4 25.9 67 -8.6 16.5 -2.993 -0.118
01:57 1021 30.15 850 25.1 -3.3 26.1 68 -8.4 16.9 -2.92 -0.115
01:58 1021 30.15 850 25.1 -3.2 26.2 67 -8.5 16.7 -2.829 -0.111
01:59 1021 30.15 850 25.1 -3.1 26.4 66 -8.6 16.4 -2.761 -0.109
03:00 1021 30.15 850 25.1 -3 26.7 63 -9 15.7 -2.63 -0.104
03:01 1021 30.15 850 25.1 -2.8 27 62 -9.1 15.6 -2.483 -0.098
03:02 1021 30.15 850 25.1 -2.6 27.3 61 -9.1 15.6 -2.324 -0.091
03:03 1021 30.15 850 25.1 -2.5 27.5 61 -9 15.8 -2.205 -0.087
03:04 1021 30.15 850 25.1 -2.5 27.5 61 -9.1 15.7 -2.16 -0.085
03:05 1021 30.15 850 25.1 -2.4 27.7 60 -9.2 15.4 -2.041 -0.08
03:06 1021 30.15 850 25.1 -2.4 27.8 59 -9.2 15.4 -2.052 -0.081
03:07 1021 30.15 850 25.1 -2.3 27.8 60 -9.1 15.6 -1.967 -0.077
03:08 1021 30.15 850 25.1 -2.3 27.8 60 -9 15.7 -2.018 -0.079
03:09 1021 30.15 850 25.1 -2.4 27.7 60 -9.1 15.6 -2.064 -0.081
03:10 1021 30.15 850 25.1 -2.4 27.6 60 -9.2 15.5 -2.137 -0.084
03:11 1021 30.15 850 25.1 -2.4 27.6 60 -9.1 15.5 -2.126 -0.084
03:12 1021 30.15 850 25.1 -2.5 27.5 62 -8.9 15.9 -2.154 -0.085
03:13 1021 30.15 850 25.1 -2.6 27.3 63 -8.6 16.4 -2.285 -0.09
03:14 1021 30.15 850 25.1 -2.8 27 65 -8.5 16.7 -2.387 -0.094
03:15 1021 30.15 850 25.1 -2.8 26.9 65 -8.5 16.7 -2.477 -0.098
03:16 1021 30.15 850 25.1 -2.9 26.8 66 -8.3 17 -2.46 -0.097
03:17 1021 30.15 850 25.1 -2.9 26.8 66 -8.3 17 -2.489 -0.098
03:18 1021 30.15 850 25.1 -2.9 26.9 66 -8.4 16.9 -2.477 -0.098
03:19 1021 30.15 850 25.1 -2.8 26.9 67 -8.2 17.3 -2.443 -0.096
03:20 1021 30.15 850 25.1 -2.9 26.8 67 -8.1 17.4 -2.472 -0.097
03:21 1021 30.15 850 25.1 -2.9 26.8 68 -8 17.5 -2.477 -0.098
03:22 1021 30.15 850 25.1 -3 26.7 69 -7.9 17.7 -2.551 -0.1
03:23 1021 30.15 850 25.1 -3 26.6 69 -7.9 17.8 -2.67 -0.105
03:24 1021 30.15 850 25.1 -3.1 26.4 70 -7.9 17.8 -2.71 -0.107
03:25 1021 30.15 850 25.1 -3.1 26.4 69 -7.9 17.7 -2.687 -0.106
03:26 1021 30.15 850 25.1 -2.9 26.7 67 -8.2 17.3 -2.534 -0.1
03:27 1021 30.15 850 25.1 -2.8 26.9 68 -7.9 17.7 -2.398 -0.094
03:28 1021 30.15 850 25.1 -2.8 27 69 -7.7 18.1 -2.421 -0.095
03:29 1021 30.15 850 25.1 -2.9 26.7 68 -8.1 17.5 -2.557 -0.101
03:30 1021 30.15 850 25.1 -2.9 26.8 67 -8.2 17.2 -2.523 -0.099
03:31 1021 30.15 850 25.1 -2.8 26.9 67 -8.1 17.4 -2.489 -0.098
03:32 1021 30.15 850 25.1 -2.8 26.9 67 -8.2 17.2 -2.472 -0.097
03:33 1021 30.15 850 25.1 -2.8 26.9 67 -8 17.6 -2.484 -0.098
03:34 1021 30.15 850 25.1 -2.8 26.9 67 -8.1 17.5 -2.479 -0.098
03:35 1021 30.15 850 25.1 -2.8 27 67 -8 17.6 -2.462 -0.097
03:36 1021 30.15 850 25.1 -2.8 27 68 -7.9 17.8 -2.467 -0.097
03:37 1021 30.15 850 25.1 -2.8 27.1 69 -7.8 18 -2.478 -0.098
03:38 1021 30.15 850 25.1 -2.8 27 68 -7.9 17.8 -2.495 -0.098
03:39 1021 30.15 850 25.1 -2.9 26.9 69 -7.9 17.9 -2.518 -0.099
03:40 1021 30.15 850 25.1 -2.9 26.7 69 -7.7 18.1 -2.569 -0.101
03:41 1021 30.15 850 25.1 -3 26.6 69 -7.9 17.8 -2.665 -0.105
03:42 1021 30.15 850 25.1 -3 26.7 68 -8 17.6 -2.586 -0.102
03:43 1021 30.15 850 25.1 -3 26.7 70 -7.7 18.1 -2.625 -0.103
03:44 1021 30.15 850 25.1 -3.1 26.4 70 -7.8 18 -2.716 -0.107
03:45 1021 30.15 850 25.1 -3.2 26.3 71 -7.7 18.1 -2.756 -0.109
03:46 1021 30.15 850 25.1 -3.2 26.2 70 -7.9 17.8 -2.846 -0.112
03:47 1021 30.15 850 25.1 -3.2 26.2 69 -8.1 17.4 -2.886 -0.114
03:48 1021 30.15 850 25.1 -3.1 26.4 69 -8.1 17.5 -2.796 -0.11
03:49 1021 30.15 850 25.1 -3.2 26.3 70 -7.9 17.7 -2.848 -0.112
03:50 1021 30.15 850 25.1 -3.3 26 70 -8 17.7 -2.967 -0.117
03:51 1021 30.15 850 25.1 -3.3 26 70 -8 17.7 -2.961 -0.117
03:52 1021 30.15 850 25.1 -3.4 25.9 72 -7.8 18 -3.017 -0.119
03:53 1021 30.15 851 25.13 -3.5 25.6 72 -7.9 17.9 -3.17 -0.125
03:54 1021 30.15 851 25.13 -3.5 25.7 72 -7.8 17.9 -3.17 -0.125
03:55 1021 30.15 851 25.13 -3.6 25.6 73 -7.8 18 -3.159 -0.124
03:56 1021 30.15 851 25.13 -3.7 25.4 73 -7.8 18 -3.323 -0.131
03:57 1021 30.15 850 25.1 -3.8 25.2 74 -7.8 18 -3.419 -0.135
03:58 1021 30.15 851 25.13 -3.7 25.3 72 -8 17.6 -3.374 -0.133
03:59 1021 30.15 851 25.13 -3.6 25.5 73 -7.8 17.9 -3.323 -0.131
04:00 1021 30.15 851 25.13 -3.7 25.4 73 -7.8 18 -3.364 -0.132
04:01 1021 30.15 851 25.13 -3.8 25.2 74 -7.8 18 -3.403 -0.134
04:02 1021 30.15 851 25.13 -3.9 24.9 76 -7.6 18.4 -3.511 -0.138
04:03 1021 30.15 851 25.13 -3.9 25 74 -7.9 17.8 -3.494 -0.138
04:04 1021 30.15 851 25.13 -3.7 25.3 74 -7.8 18 -3.352 -0.132
04:05 1021 30.15 851 25.13 -3.7 25.4 73 -7.8 18 -3.261 -0.128
04:06 1021 30.15 851 25.13 -3.6 25.5 73 -7.8 17.9 -3.233 -0.127
04:07 1021 30.15 851 25.13 -3.6 25.5 73 -7.9 17.9 -3.233 -0.127
04:08 1021 30.15 851 25.13 -3.7 25.3 73 -7.9 17.8 -3.346 -0.132
04:09 1021 30.15 851 25.13 -3.7 25.3 72 -8 17.6 -3.34 -0.131
04:10 1021 30.15 851 25.13 -3.6 25.6 71 -8.1 17.5 -3.261 -0.128
04:11 1021 30.15 851 25.13 -3.5 25.8 71 -8 17.7 -3.17 -0.125
04:12 1021 30.15 851 25.13 -3.6 25.6 72 -7.9 17.8 -3.164 -0.125
04:13 1021 30.15 851 25.13 -3.5 25.6 73 -7.7 18.1 -3.209 -0.126
04:14 1021 30.15 851 25.13 -3.5 25.8 73 -7.6 18.3 -3.119 -0.123
04:15 1021 30.15 851 25.13 -3.3 26 72 -7.6 18.3 -2.994 -0.118
04:16 1021 30.15 851 25.13 -3.3 26 73 -7.5 18.4 -2.988 -0.118
04:17 1021 30.15 851 25.13 -3.3 26 73 -7.4 18.6 -2.989 -0.118
04:18 1021 30.15 851 25.13 -3.5 25.8 73 -7.6 18.3 -3.035 -0.119
04:19 1021 30.15 851 25.13 -3.3 26 71 -7.8 17.9 -2.944 -0.116
04:20 1021 30.15 851 25.13 -3.2 26.3 70 -7.8 17.9 -2.813 -0.111
04:21 1021 30.15 851 25.13 -3.1 26.5 68 -8.1 17.4 -2.689 -0.106
04:22 1021 30.15 851 25.13 -2.9 26.8 67 -8.2 17.3 -2.507 -0.099
04:23 1021 30.15 851 25.13 -2.8 27 66 -8.2 17.2 -2.416 -0.095
04:24 1021 30.15 851 25.13 -2.6 27.3 67 -8 17.6 -2.308 -0.091
04:25 1021 30.15 851 25.13 -2.7 27.1 69 -7.7 18.1 -2.303 -0.091
04:26 1021 30.15 851 25.13 -2.8 27 70 -7.5 18.5 -2.41 -0.095
04:27 1021 30.15 851 25.13 -3 26.7 72 -7.3 18.8 -2.575 -0.101
04:28 1021 30.15 851 25.13 -3.2 26.3 73 -7.3 18.9 -2.694 -0.106
04:29 1021 30.15 851 25.13 -3.2 26.2 73 -7.3 18.8 -2.773 -0.109
04:30 1021 30.15 851 25.13 -3.2 26.2 74 -7.2 19 -2.801 -0.11
04:31 1021 30.15 851 25.13 -3.3 26.1 76 -6.9 19.5 -2.796 -0.11
04:32 1021 30.15 851 25.13 -3.3 26.1 76 -6.9 19.6 -2.858 -0.113
04:33 1021 30.15 851 25.13 -3.4 26 77 -6.8 19.8 -2.892 -0.114
04:34 1021 30.15 851 25.13 -3.4 25.9 78 -6.8 19.8 -2.931 -0.115
04:35 1021 30.15 851 25.13 -3.4 25.8 78 -6.8 19.8 -2.965 -0.117
04:36 1021 30.15 851 25.13 -3.4 25.8 78 -6.7 19.9 -2.982 -0.117
04:37 1021 30.15 851 25.13 -3.3 26.1 77 -6.8 19.8 -2.869 -0.113
04:38 1021 30.15 851 25.13 -3.2 26.3 77 -6.7 19.9 -2.778 -0.109
04:39 1021 30.15 851 25.13 -3.2 26.2 77 -6.8 19.8 -2.807 -0.111
04:40 1021 30.15 851 25.13 -3.3 26.1 76 -6.9 19.6 -2.869 -0.113
04:41 1021 30.15 851 25.13 -3.3 26.1 78 -6.7 20 -2.915 -0.115
04:42 1021 30.15 851 25.13 -3.5 25.7 79 -6.5 20.2 -3.063 -0.121
04:43 1021 30.15 851 25.13 -3.7 25.4 80 -6.6 20.2 -3.193 -0.126
04:44 1021 30.15 851 25.13 -3.7 25.3 80 -6.7 19.9 -3.262 -0.128
04:45 1021 30.15 851 25.13 -3.7 25.4 79 -6.9 19.7 -3.234 -0.127
04:46 1021 30.15 851 25.13 -3.6 25.6 78 -6.9 19.7 -3.166 -0.125
04:47 1021 30.15 851 25.13 -3.6 25.5 79 -6.8 19.8 -3.182 -0.125
04:48 1021 30.15 851 25.13 -3.6 25.5 79 -6.7 20 -3.222 -0.127
04:49 1021 30.15 851 25.13 -3.8 25.2 81 -6.6 20.1 -3.319 -0.131
04:50 1021 30.15 851 25.13 -3.8 25.2 83 -6.3 20.6 -3.348 -0.132
04:51 1021 30.15 851 25.13 -3.9 25 84 -6.2 20.8 -3.404 -0.134
04:52 1021 30.15 851 25.13 -3.9 24.9 84 -6.2 20.8 -3.455 -0.136
04:53 1022 30.18 851 25.13 -4 24.8 85 -6.2 20.8 -3.523 -0.139
04:54 1022 30.18 851 25.13 -4 24.8 85 -6.1 21 -3.517 -0.138
04:55 1022 30.18 851 25.13 -4 24.9 85 -6.1 21.1 -3.517 -0.138
04:56 1021 30.15 851 25.13 -3.9 25 85 -6.1 21.1 -3.478 -0.137
04:57 1022 30.18 851 25.13 -3.8 25.1 85 -6 21.1 -3.41 -0.134
04:58 1022 30.18 851 25.13 -3.7 25.3 84 -6 21.3 -3.308 -0.13
04:59 1022 30.18 851 25.13 -3.7 25.4 84 -6 21.3 -3.286 -0.129
05:00 1022 30.18 851 25.13 -3.7 25.4 84 -5.9 21.3 -3.258 -0.128
05:01 1022 30.18 851 25.13 -3.7 25.4 84 -5.9 21.3 -3.224 -0.127
05:02 1022 30.18 851 25.13 -3.6 25.6 84 -5.9 21.4 -3.196 -0.126
05:03 1022 30.18 851 25.13 -3.5 25.7 84 -5.9 21.4 -3.116 -0.123
05:04 1021 30.15 851 25.13 -3.4 25.8 83 -5.9 21.5 -3.043 -0.12
05:05 1021 30.15 851 25.13 -3.4 25.9 84 -5.7 21.8 -2.987 -0.118
05:06 1021 30.15 851 25.13 -3.3 26 84 -5.6 21.8 -2.936 -0.116
05:07 1021 30.15 850 25.1 -3.3 26.1 84 -5.6 22 -2.907 -0.114
05:08 1021 30.15 850 25.1 -3.2 26.2 83 -5.7 21.8 -2.834 -0.112
05:09 1021 30.15 850 25.1 -3.1 26.4 82 -5.8 21.6 -2.686 -0.106
05:10 1021 30.15 850 25.1 -3 26.6 82 -5.7 21.8 -2.63 -0.104
05:11 1021 30.15 850 25.1 -3 26.6 82 -5.7 21.8 -2.585 -0.102
05:12 1021 30.15 850 25.1 -2.9 26.8 80 -5.9 21.5 -2.5 -0.098
05:13 1021 30.15 850 25.1 -2.9 26.8 79 -6 21.1 -2.5 -0.098
05:14 1021 30.15 850 25.1 -2.9 26.7 79 -6.1 21 -2.534 -0.1
05:15 1021 30.15 850 25.1 -2.9 26.8 78 -6.2 20.8 -2.528 -0.1
05:16 1021 30.15 850 25.1 -2.9 26.8 77 -6.3 20.6 -2.494 -0.098
05:17 1021 30.15 850 25.1 -2.9 26.8 77 -6.4 20.4 -2.483 -0.098
05:18 1021 30.15 851 25.13 -2.8 26.9 76 -6.4 20.5 -2.472 -0.097
05:19 1021 30.15 851 25.13 -2.9 26.9 76 -6.5 20.3 -2.472 -0.097
05:20 1021 30.15 851 25.13 -2.9 26.8 76 -6.6 20.2 -2.489 -0.098
05:21 1021 30.15 851 25.13 -2.9 26.8 76 -6.6 20.2 -2.517 -0.099
05:22 1022 30.18 851 25.13 -2.9 26.8 76 -6.6 20.1 -2.529 -0.1
05:23 1022 30.18 851 25.13 -2.9 26.8 76 -6.6 20.1 -2.506 -0.099
05:24 1022 30.18 851 25.13 -2.9 26.7 75 -6.8 19.7 -2.517 -0.099
05:25 1022 30.18 851 25.13 -2.9 26.8 74 -6.9 19.5 -2.546 -0.1
05:26 1022 30.18 851 25.13 -3 26.7 73 -7.2 19.1 -2.568 -0.101
05:27 1022 30.18 851 25.13 -3 26.6 72 -7.3 18.9 -2.648 -0.104
05:28 1022 30.18 851 25.13 -3.1 26.5 72 -7.5 18.5 -2.648 -0.104
05:29 1022 30.18 851 25.13 -3.1 26.5 71 -7.6 18.3 -2.693 -0.106
05:30 1022 30.18 851 25.13 -3.1 26.5 71 -7.7 18.2 -2.716 -0.107
05:31 1022 30.18 851 25.13 -3.1 26.5 70 -7.7 18.1 -2.727 -0.107
05:32 1022 30.18 851 25.13 -3 26.5 70 -7.8 18 -2.71 -0.107
05:33 1022 30.18 851 25.13 -3.1 26.5 70 -7.8 18 -2.716 -0.107
05:34 1022 30.18 851 25.13 -3 26.5 70 -7.8 18 -2.705 -0.106
05:35 1022 30.18 851 25.13 -3.1 26.5 71 -7.7 18.2 -2.75 -0.108
05:36 1022 30.18 851 25.13 -3.2 26.3 71 -7.7 18.1 -2.869 -0.113
05:37 1022 30.18 851 25.13 -3.2 26.3 70 -7.9 17.7 -2.812 -0.111
05:38 1022 30.18 851 25.13 -3.1 26.5 70 -7.8 17.9 -2.767 -0.109
05:39 1022 30.18 851 25.13 -3.1 26.3 71 -7.8 18 -2.835 -0.112
05:40 1022 30.18 851 25.13 -3.2 26.2 70 -7.9 17.7 -2.841 -0.112
05:41 1022 30.18 851 25.13 -3.1 26.4 69 -8 17.5 -2.818 -0.111
05:42 1022 30.18 851 25.13 -3 26.5 68 -8 17.5 -2.778 -0.109
05:43 1022 30.18 851 25.13 -3.1 26.5 68 -8.1 17.5 -2.722 -0.107
05:44 1022 30.18 851 25.13 -3 26.6 69 -7.9 17.7 -2.733 -0.108
05:45 1022 30.18 851 25.13 -3.1 26.4 68 -8.1 17.4 -2.739 -0.108
05:46 1022 30.18 851 25.13 -3.1 26.5 69 -8 17.5 -2.716 -0.107
05:47 1022 30.18 851 25.13 -3.2 26.3 71 -7.7 18.1 -2.829 -0.111
05:48 1022 30.18 851 25.13 -3.5 25.8 71 -8 17.6 -3.039 -0.12
05:49 1022 30.18 851 25.13 -3.3 26.1 67 -8.5 16.7 -2.943 -0.116
05:50 1022 30.18 851 25.13 -3 26.6 65 -8.7 16.4 -2.671 -0.105
05:51 1022 30.18 851 25.13 -2.7 27.1 66 -8.3 17.1 -2.461 -0.097
05:52 1022 30.18 851 25.13 -2.7 27.1 66 -8.2 17.2 -2.393 -0.094
05:53 1022 30.18 851 25.13 -3 26.7 68 -8.1 17.4 -2.62 -0.103
05:54 1022 30.18 851 25.13 -3.3 26 69 -8.2 17.3 -2.937 -0.116
05:55 1022 30.18 851 25.13 -3.4 26 67 -8.6 16.5 -3.073 -0.121
05:56 1022 30.18 851 25.13 -3 26.5 64 -8.9 16 -2.852 -0.112
05:57 1022 30.18 851 25.13 -2.7 27.2 61 -9.1 15.6 -2.427 -0.096
05:58 1022 30.18 851 25.13 -2.4 27.7 62 -8.8 16.2 -2.11 -0.083
05:59 1022 30.18 851 25.13 -2.4 27.7 64 -8.4 16.9 -2.149 -0.085
06:00 1022 30.18 851 25.13 -2.8 27 65 -8.4 16.8 -2.41 -0.095
06:01 1022 30.18 851 25.13 -2.8 27 64 -8.7 16.4 -2.478 -0.098
06:02 1022 30.18 851 25.13 -2.8 27 65 -8.5 16.7 -2.444 -0.096
06:03 1022 30.18 851 25.13 -3 26.6 66 -8.5 16.8 -2.671 -0.105
06:04 1022 30.18 851 25.13 -3 26.6 65 -8.7 16.4 -2.688 -0.106
06:05 1022 30.18 851 25.13 -3.2 26.3 67 -8.5 16.6 -2.852 -0.112
06:06 1022 30.18 851 25.13 -3.4 25.8 68 -8.6 16.6 -3.073 -0.121
06:07 1022 30.18 851 25.13 -3.5 25.7 68 -8.5 16.6 -3.141 -0.124
06:08 1022 30.18 851 25.13 -3.8 25.2 69 -8.6 16.6 -3.402 -0.134
06:09 1022 30.18 851 25.13 -4 24.7 71 -8.6 16.5 -3.572 -0.141
06:10 1022 30.18 851 25.13 -4.2 24.5 72 -8.6 16.6 -3.782 -0.149
06:11 1022 30.18 851 25.13 -4.3 24.2 72 -8.7 16.4 -3.901 -0.154
06:12 1022 30.18 851 25.13 -4.5 24 73 -8.6 16.6 -4.02 -0.158
06:13 1022 30.18 851 25.13 -4.4 24 73 -8.6 16.5 -3.98 -0.157
06:14 1022 30.18 851 25.13 -4 24.8 70 -8.6 16.5 -3.561 -0.14
06:15 1022 30.18 851 25.13 -3.8 25.2 70 -8.5 16.8 -3.317 -0.131
06:16 1022 30.18 851 25.13 -3.7 25.4 69 -8.5 16.7 -3.243 -0.128
06:17 1022 30.18 851 25.13 -3.9 25 71 -8.4 16.9 -3.442 -0.136
06:18 1022 30.18 851 25.13 -4 24.9 71 -8.4 16.9 -3.549 -0.14
06:19 1022 30.18 851 25.13 -4 24.9 71 -8.4 16.8 -3.555 -0.14
06:20 1022 30.18 851 25.13 -4.1 24.7 72 -8.5 16.7 -3.685 -0.145
06:21 1022 30.18 851 25.13 -4.4 24.1 74 -8.3 17 -3.923 -0.154
06:22 1022 30.18 851 25.13 -4.6 23.8 75 -8.4 16.9 -4.105 -0.162
06:23 1022 30.18 851 25.13 -4.5 23.9 74 -8.5 16.7 -4.11 -0.162
06:24 1022 30.18 851 25.13 -4.3 24.3 72 -8.6 16.6 -3.986 -0.157
06:25 1022 30.18 851 25.13 -3.9 24.9 70 -8.5 16.6 -3.748 -0.148
06:26 1022 30.18 851 25.13 -3.8 25.2 69 -8.6 16.6 -3.594 -0.141
06:27 1022 30.18 851 25.13 -3.8 25.2 69 -8.7 16.4 -3.554 -0.14
06:28 1022 30.18 851 25.13 -3.8 25.2 69 -8.6 16.5 -3.571 -0.141
06:29 1022 30.18 851 25.13 -3.6 25.5 69 -8.5 16.7 -3.451 -0.136
06:30 1022 30.18 851 25.13 -3.6 25.6 69 -8.5 16.8 -3.343 -0.132
06:31 1022 30.18 851 25.13 -3.6 25.5 69 -8.5 16.7 -3.422 -0.135
06:32 1022 30.18 851 25.13 -3.8 25.1 70 -8.6 16.5 -3.501 -0.138
06:33 1022 30.18 851 25.13 -3.8 25.1 70 -8.5 16.6 -3.495 -0.138
06:34 1022 30.18 851 25.13 -3.8 25.2 69 -8.6 16.5 -3.45 -0.136
06:35 1022 30.18 851 25.13 -3.8 25.1 69 -8.6 16.5 -3.518 -0.139
06:36 1022 30.18 851 25.13 -4 24.9 70 -8.6 16.5 -3.597 -0.142
06:37 1022 30.18 851 25.13 -3.9 25 70 -8.6 16.5 -3.58 -0.141
06:38 1022 30.18 851 25.13 -3.9 24.9 70 -8.6 16.5 -3.596 -0.142
06:39 1022 30.18 851 25.13 -4 24.8 70 -8.7 16.3 -3.613 -0.142
06:40 1022 30.18 851 25.13 -4 24.8 70 -8.6 16.4 -3.647 -0.144
06:41 1022 30.18 851 25.13 -4 24.7 71 -8.6 16.4 -3.692 -0.145
06:42 1022 30.18 851 25.13 -4 24.7 71 -8.6 16.4 -3.703 -0.146
06:43 1022 30.18 851 25.13 -4 24.8 70 -8.6 16.4 -3.647 -0.144
06:44 1022 30.18 851 25.13 -4 24.9 71 -8.6 16.6 -3.629 -0.143
06:45 1022 30.18 851 25.13 -3.9 24.9 70 -8.7 16.4 -3.607 -0.142
06:46 1022 30.18 851 25.13 -3.8 25.1 70 -8.6 16.5 -3.573 -0.141
06:47 1022 30.18 851 25.13 -3.8 25.1 69 -8.7 16.3 -3.544 -0.14
06:48 1022 30.18 852 25.16 -3.8 25.2 69 -8.7 16.3 -3.544 -0.14
06:49 1022 30.18 852 25.16 -3.9 25 69 -8.8 16.2 -3.578 -0.141
06:50 1022 30.18 851 25.13 -3.9 24.9 69 -8.9 16 -3.686 -0.145
06:51 1022 30.18 852 25.16 -4.1 24.5 70 -8.8 16.2 -3.867 -0.152
06:52 1022 30.18 852 25.16 -4.4 24 71 -8.9 15.9 -4.105 -0.162
06:53 1022 30.18 852 25.16 -4.7 23.5 73 -8.9 16.1 -4.303 -0.169
06:54 1022 30.18 852 25.16 -4.9 23.2 74 -8.8 16.1 -4.434 -0.175
06:55 1022 30.18 852 25.16 -5 23.1 75 -8.7 16.3 -4.553 -0.179
06:56 1022 30.18 852 25.16 -5 23 75 -8.8 16.2 -4.604 -0.181
06:57 1022 30.18 852 25.16 -5 23 76 -8.7 16.4 -4.587 -0.181
06:58 1022 30.18 852 25.16 -4.8 23.3 75 -8.7 16.4 -4.428 -0.174
06:59 1022 30.18 852 25.16 -4.7 23.5 74 -8.7 16.4 -4.343 -0.171
07:00 1022 30.18 852 25.16 -4.6 23.7 74 -8.6 16.5 -4.269 -0.168
07:01 1022 30.18 852 25.16 -4.5 24 73 -8.6 16.5 -4.133 -0.163
07:02 1022 30.18 852 25.16 -4.3 24.2 72 -8.6 16.5 -3.963 -0.156
07:03 1022 30.18 852 25.16 -4.2 24.4 72 -8.6 16.6 -3.929 -0.155
07:04 1022 30.18 852 25.16 -4.3 24.3 72 -8.6 16.6 -3.901 -0.154
07:05 1022 30.18 852 25.16 -4.2 24.4 72 -8.5 16.8 -3.867 -0.152
07:06 1022 30.18 852 25.16 -4.1 24.5 73 -8.4 17 -3.827 -0.151
07:07 1022 30.18 852 25.16 -4.2 24.4 73 -8.4 17 -3.872 -0.152
07:08 1022 30.18 852 25.16 -4.2 24.5 72 -8.4 16.9 -3.776 -0.149
07:09 1022 30.18 852 25.16 -4 24.8 72 -8.3 17.1 -3.651 -0.144
07:10 1022 30.18 852 25.16 -4 24.8 72 -8.3 17 -3.702 -0.146
07:11 1022 30.18 852 25.16 -4.3 24.2 74 -8.3 17 -4.008 -0.158
07:12 1022 30.18 852 25.16 -4.7 23.6 76 -8.3 17.1 -4.292 -0.169
07:13 1022 30.18 852 25.16 -4.7 23.5 77 -8.2 17.2 -4.348 -0.171
07:14 1022 30.18 852 25.16 -4.5 23.9 75 -8.4 16.9 -4.093 -0.161
07:15 1022 30.18 852 25.16 -4.5 23.9 74 -8.4 16.9 -4.138 -0.163
07:16 1022 30.18 852 25.16 -4.7 23.5 76 -8.3 17 -4.365 -0.172
07:17 1022 30.18 852 25.16 -4.7 23.5 75 -8.5 16.7 -4.354 -0.171
07:18 1023 30.21 852 25.16 -4.8 23.4 75 -8.5 16.7 -4.405 -0.173
07:19 1023 30.21 852 25.16 -4.8 23.4 76 -8.3 17 -4.411 -0.174
07:20 1023 30.21 852 25.16 -4.6 23.7 76 -8.2 17.2 -4.223 -0.166
07:21 1023 30.21 852 25.16 -4.6 23.8 76 -8.2 17.3 -4.201 -0.165
07:22 1023 30.21 852 25.16 -4.6 23.8 76 -8.1 17.4 -4.189 -0.165
07:23 1023 30.21 852 25.16 -4.6 23.7 76 -8.2 17.2 -4.218 -0.166
07:24 1023 30.21 852 25.16 -4.7 23.6 77 -8.1 17.5 -4.28 -0.169
07:25 1023 30.21 852 25.16 -4.7 23.6 78 -8 17.6 -4.303 -0.169
07:26 1023 30.21 852 25.16 -4.6 23.6 77 -8.1 17.4 -4.229 -0.166
07:27 1022 30.18 852 25.16 -4.4 24 74 -8.3 17 -4.065 -0.16
07:28 1022 30.18 852 25.16 -4.2 24.5 73 -8.3 17.1 -3.81 -0.15
07:29 1023 30.21 852 25.16 -4.1 24.6 73 -8.2 17.3 -3.742 -0.147
07:30 1023 30.21 852 25.16 -4.2 24.5 74 -8.2 17.3 -3.759 -0.148
07:31 1023 30.21 852 25.16 -4 24.7 72 -8.4 17 -3.651 -0.144
07:32 1023 30.21 852 25.16 -3.8 25.2 71 -8.3 17 -3.424 -0.135
07:33 1023 30.21 852 25.16 -3.6 25.4 71 -8.1 17.3 -3.305 -0.13
07:34 1023 30.21 852 25.16 -3.5 25.6 70 -8.2 17.2 -3.214 -0.127
07:35 1023 30.21 852 25.16 -3.5 25.8 69 -8.4 16.9 -3.141 -0.124
07:36 1022 30.18 852 25.16 -3.4 25.9 69 -8.3 17 -3.056 -0.12
07:37 1022 30.18 852 25.16 -3.4 25.8 69 -8.3 17 -3.129 -0.123
07:38 1022 30.18 852 25.16 -3.4 25.9 68 -8.6 16.6 -3.09 -0.122
07:39 1022 30.18 852 25.16 -3.2 26.2 67 -8.6 16.6 -2.954 -0.116
07:40 1022 30.18 852 25.16 -3.1 26.4 67 -8.5 16.7 -2.852 -0.112
07:41 1022 30.18 852 25.16 -3 26.5 67 -8.4 17 -2.812 -0.111
07:42 1022 30.18 852 25.16 -3 26.6 66 -8.5 16.8 -2.676 -0.105
07:43 1022 30.18 852 25.16 -3 26.7 67 -8.2 17.2 -2.636 -0.104
07:44 1022 30.18 852 25.16 -3.1 26.5 67 -8.3 17.1 -2.761 -0.109
07:45 1022 30.18 852 25.16 -3.2 26.3 68 -8.3 17 -2.835 -0.112
07:46 1022 30.18 852 25.16 -3.3 26 69 -8.2 17.2 -2.999 -0.118
07:47 1022 30.18 852 25.16 -3.5 25.7 70 -8.3 17.1 -3.197 -0.126
07:48 1022 30.18 852 25.16 -3.5 25.6 69 -8.4 17 -3.163 -0.125
07:49 1022 30.18 852 25.16 -3.5 25.7 69 -8.4 17 -3.146 -0.124
07:50 1022 30.18 852 25.16 -3.4 25.9 69 -8.3 17.1 -3.044 -0.12
07:51 1022 30.18 852 25.16 -3.2 26.2 68 -8.3 17.1 -2.869 -0.113
07:52 1022 30.18 852 25.16 -3 26.6 68 -8.1 17.4 -2.755 -0.108
07:53 1022 30.18 852 25.16 -3 26.6 69 -7.9 17.7 -2.687 -0.106
07:54 1022 30.18 852 25.16 -3.1 26.4 69 -8.1 17.4 -2.795 -0.11
07:55 1022 30.18 852 25.16 -3 26.6 69 -8 17.6 -2.715 -0.107
07:56 1022 30.18 852 25.16 -3 26.7 69 -8 17.7 -2.636 -0.104
07:57 1022 30.18 852 25.16 -2.9 26.7 68 -8 17.7 -2.568 -0.101
07:58 1022 30.18 852 25.16 -2.9 26.8 69 -7.8 18 -2.54 -0.1
07:59 1022 30.18 852 25.16 -3 26.6 70 -7.8 18 -2.659 -0.105
08:00 1022 30.18 852 25.16 -3.2 26.2 71 -7.7 18.1 -2.851 -0.112
08:01 1023 30.21 852 25.16 -3.4 25.9 72 -7.8 18 -2.942 -0.116
08:02 1023 30.21 852 25.16 -3.5 25.6 73 -7.7 18.1 -3.124 -0.123
08:03 1023 30.21 852 25.16 -3.7 25.4 74 -7.6 18.2 -3.248 -0.128
08:04 1023 30.21 852 25.16 -3.8 25.2 75 -7.7 18.2 -3.356 -0.132
08:05 1023 30.21 852 25.16 -3.9 25 75 -7.7 18.1 -3.43 -0.135
08:06 1023 30.21 852 25.16 -3.9 24.9 75 -7.7 18.2 -3.509 -0.138
08:07 1023 30.21 852 25.16 -4 24.8 76 -7.7 18.1 -3.532 -0.139
08:08 1023 30.21 852 25.16 -4.1 24.7 76 -7.7 18.1 -3.583 -0.141
08:09 1023 30.21 852 25.16 -4.1 24.7 75 -7.8 17.9 -3.622 -0.143
08:10 1023 30.21 852 25.16 -4.1 24.6 75 -7.9 17.8 -3.639 -0.143
08:11 1023 30.21 852 25.16 -4 24.7 75 -7.9 17.8 -3.571 -0.141
08:12 1023 30.21 852 25.16 -4 24.8 74 -8 17.6 -3.532 -0.139
08:13 1023 30.21 852 25.16 -4 24.9 74 -8 17.6 -3.52 -0.139
08:14 1023 30.21 852 25.16 -3.9 25 74 -8 17.7 -3.515 -0.138
08:15 1023 30.21 852 25.16 -3.9 25.1 73 -8 17.6 -3.435 -0.135
08:16 1023 30.21 852 25.16 -3.8 25.1 73 -8 17.5 -3.43 -0.135
08:17 1023 30.21 852 25.16 -3.8 25.2 72 -8.1 17.5 -3.356 -0.132
08:18 1023 30.21 852 25.16 -3.8 25.2 73 -8 17.6 -3.384 -0.133
08:19 1023 30.21 852 25.16 -3.8 25.1 73 -8 17.5 -3.447 -0.136
08:20 1023 30.21 852 25.16 -3.8 25.1 72 -8.2 17.3 -3.509 -0.138
08:21 1023 30.21 852 25.16 -4 24.9 73 -8.1 17.4 -3.662 -0.144
08:22 1023 30.21 852 25.16 -4 24.7 74 -8.1 17.5 -3.696 -0.146
08:23 1023 30.21 852 25.16 -4 24.7 73 -8.1 17.4 -3.702 -0.146
08:24 1023 30.21 852 25.16 -4.2 24.4 75 -8 17.6 -3.883 -0.153
08:25 1023 30.21 852 25.16 -4.4 24.1 77 -7.9 17.8 -4.019 -0.158
08:26 1023 30.21 852 25.16 -4.6 23.8 79 -7.7 18.1 -4.127 -0.162
08:27 1023 30.21 852 25.16 -4.6 23.7 80 -7.7 18.2 -4.195 -0.165
08:28 1023 30.21 852 25.16 -4.6 23.8 80 -7.5 18.5 -4.15 -0.163
08:29 1023 30.21 852 25.16 -4.5 24 78 -7.7 18.2 -4.07 -0.16
08:30 1023 30.21 852 25.16 -4.5 23.9 79 -7.7 18.2 -4.127 -0.162
08:31 1023 30.21 852 25.16 -4.5 23.8 78 -7.8 17.9 -4.155 -0.164
08:32 1023 30.21 852 25.16 -4.6 23.7 78 -7.9 17.8 -4.229 -0.166
08:33 1023 30.21 852 25.16 -4.7 23.6 79 -7.8 18 -4.269 -0.168
08:34 1023 30.21 852 25.16 -4.6 23.8 78 -7.8 18 -4.195 -0.165
08:35 1023 30.21 852 25.16 -4.5 23.9 78 -7.7 18.1 -4.138 -0.163
08:36 1023 30.21 852 25.16 -4.3 24.3 76 -7.8 17.9 -3.94 -0.155
08:37 1023 30.21 852 25.16 -4.1 24.6 74 -8 17.5 -3.793 -0.149
08:38 1023 30.21 852 25.16 -4.1 24.6 75 -8 17.7 -3.793 -0.149
08:39 1023 30.21 852 25.16 -4.1 24.5 76 -7.8 18 -3.742 -0.147
08:40 1023 30.21 852 25.16 -4 24.8 77 -7.5 18.5 -3.628 -0.143
08:41 1023 30.21 852 25.16 -3.8 25.2 76 -7.4 18.6 -3.464 -0.136
08:42 1023 30.21 852 25.16 -3.6 25.5 76 -7.3 18.8 -3.192 -0.126
08:43 1023 30.21 852 25.16 -3.4 25.8 74 -7.5 18.6 -3.022 -0.119
08:44 1023 30.21 852 25.16 -3.3 26 75 -7.2 19.1 -2.971 -0.117
08:45 1023 30.21 852 25.16 -3.3 26.1 74 -7.2 19 -2.851 -0.112
08:46 1023 30.21 852 25.16 -3.3 26.1 76 -7 19.4 -2.874 -0.113
08:47 1023 30.21 852 25.16 -3.2 26.3 75 -7 19.4 -2.755 -0.108
08:48 1023 30.21 852 25.16 -3 26.5 75 -6.9 19.6 -2.602 -0.102
08:49 1023 30.21 852 25.16 -2.9 26.8 74 -6.8 19.8 -2.483 -0.098
08:50 1023 30.21 852 25.16 -2.6 27.2 73 -6.8 19.7 -2.279 -0.09
08:51 1023 30.21 852 25.16 -2.4 27.6 73 -6.7 19.9 -2.041 -0.08
08:52 1023 30.21 852 25.16 -2.3 27.8 72 -6.7 20 -1.927 -0.076
08:53 1023 30.21 852 25.16 -2.3 27.9 72 -6.7 19.9 -1.82 -0.072
08:54 1023 30.21 852 25.16 -2.1 28.1 71 -6.7 20 -1.712 -0.067
08:55 1023 30.21 852 25.16 -2 28.4 71 -6.7 20 -1.627 -0.064
08:56 1023 30.21 852 25.16 -1.9 28.5 70 -6.7 20 -1.593 -0.063
08:57 1023 30.21 852 25.16 -1.9 28.6 70 -6.7 19.9 -1.542 -0.061
08:58 1023 30.21 852 25.16 -1.9 28.7 69 -6.7 19.9 -1.491 -0.059
08:59 1023 30.21 852 25.16 -1.7 28.9 68 -7 19.5 -1.39 -0.055
09:00 1023 30.21 852 25.16 -1.5 29.3 68 -6.7 19.9 -1.243 -0.049
09:01 1023 30.21 852 25.16 -1.4 29.5 67 -6.7 19.9 -1.107 -0.044
09:02 1023 30.21 852 25.16 -1.4 29.5 68 -6.6 20.2 -1.057 -0.042
09:03 1023 30.21 852 25.16 -1.3 29.6 68 -6.4 20.4 -1.011 -0.04
09:04 1023 30.21 852 25.16 -1.4 29.5 69 -6.3 20.7 -0.966 -0.038
09:05 1023 30.21 852 25.16 -1.4 29.5 68 -6.5 20.2 -0.944 -0.037
09:06 1023 30.21 852 25.16 -1.4 29.4 68 -6.5 20.2 -0.99 -0.039
09:07 1023 30.21 852 25.16 -1.4 29.5 69 -6.4 20.4 -0.984 -0.039
09:08 1023 30.21 852 25.16 -1.4 29.5 68 -6.6 20.2 -1.013 -0.04
09:09 1023 30.21 852 25.16 -1.3 29.7 67 -6.6 20.1 -0.939 -0.037
09:10 1023 30.21 852 25.16 -1.1 30 66 -6.7 19.9 -0.775 -0.031
09:11 1023 30.21 852 25.16 -1 30.2 66 -6.6 20.2 -0.709 -0.028
09:12 1023 30.21 852 25.16 -1 30.2 66 -6.5 20.3 -0.624 -0.025
09:13 1023 30.21 852 25.16 -0.9 30.3 68 -6.2 20.8 -0.585 -0.023
09:14 1023 30.21 852 25.16 -1 30.1 68 -6.2 20.9 -0.699 -0.028
09:15 1023 30.21 852 25.16 -1.2 29.9 69 -6.2 20.9 -0.858 -0.034
09:16 1023 30.21 852 25.16 -1.2 29.8 69 -6.1 20.9 -0.926 -0.036
09:17 1023 30.21 852 25.16 -1.2 29.8 69 -6.2 20.8 -0.916 -0.036
09:18 1023 30.21 852 25.16 -1.1 30 68 -6.2 20.8 -0.785 -0.031
09:19 1023 30.21 852 25.16 -1 30.1 68 -6.3 20.7 -0.604 -0.024
09:20 1023 30.21 852 25.16 -0.9 30.3 68 -6.2 20.9 -0.469 -0.018
09:21 1023 30.21 852 25.16 -0.9 30.5 69 -5.8 21.6 -0.253 -0.01
09:22 1023 30.21 852 25.16 -0.9 30.4 71 -5.6 21.9 -0.135 -0.005
09:23 1023 30.21 852 25.16 -0.9 30.3 70 -5.8 21.5 -0.09 -0.004
09:24 1023 30.21 852 25.16 -1 30.3 69 -5.9 21.3 -0.164 -0.006
09:25 1023 30.21 852 25.16 -1 30.2 70 -5.9 21.4 -0.203 -0.008
09:26 1023 30.21 852 25.16 -0.9 30.3 73 -5.2 22.6 -0.085 -0.003
09:27 1023 30.21 852 25.16 -0.7 30.7 72 -5.2 22.7 0.085 0.003
09:28 1023 30.21 852 25.16 -0.6 30.9 71 -5.2 22.6 0.159 0.006
09:29 1023 30.21 852 25.16 -0.4 31.3 69 -5.4 22.2 0.283 0.011
09:30 1023 30.21 852 25.16 -0.3 31.5 63 -6.4 20.4 0.357 0.014
09:31 1023 30.21 852 25.16 -0.1 31.8 62 -6.6 20.1 0.378 0.015
09:32 1023 30.21 852 25.16 0.1 32.2 61 -6.5 20.3 0.672 0.026
09:33 1023 30.21 852 25.16 0.3 32.6 62 -6 21.1 0.978 0.039
09:34 1023 30.21 852 25.16 0.5 33 63 -5.8 21.6 1.124 0.044
09:35 1023 30.21 852 25.16 0.8 33.4 62 -5.7 21.7 1.436 0.057
09:36 1023 30.21 852 25.16 1.1 33.9 62 -5.5 22.2 1.702 0.067
09:37 1023 30.21 852 25.16 1.3 34.3 60 -5.5 22.1 1.866 0.073
09:38 1023 30.21 852 25.16 1.5 34.8 60 -5.5 22.2 1.78 0.07
09:39 1023 30.21 852 25.16 1.5 34.8 57 -6 21.2 1.627 0.064
09:40 1023 30.21 852 25.16 1.5 34.6 58 -5.9 21.4 1.478 0.058
09:41 1023 30.21 852 25.16 1.3 34.4 58 -6 21.3 1.33 0.052
09:42 1023 30.21 852 25.16 1.2 34.2 58 -6.2 20.9 1.172 0.046
09:43 1023 30.21 852 25.16 1.2 34.1 60 -5.7 21.8 1.17 0.046
09:44 1023 30.21 852 25.16 1.2 34.1 59 -5.9 21.4 1.198 0.047
09:45 1023 30.21 852 25.16 1.2 34.2 58 -6.3 20.7 1.238 0.049
09:46 1023 30.21 852 25.16 1.3 34.3 56 -6.7 20 1.299 0.051
09:47 1023 30.21 852 25.16 1.3 34.4 54 -7 19.4 1.412 0.056
09:48 1023 30.21 852 25.16 1.4 34.6 54 -6.9 19.5 1.491 0.059
09:49 1023 30.21 852 25.16 1.5 34.7 54 -6.9 19.6 1.609 0.063
09:50 1023 30.21 852 25.16 1.6 34.9 56 -6.4 20.5 1.62 0.064
09:51 1023 30.21 852 25.16 1.7 35.1 57 -5.8 21.6 1.717 0.068
09:52 1023 30.21 852 25.16 1.9 35.3 57 -5.9 21.4 1.829 0.072
09:53 1023 30.21 852 25.16 2 35.7 54 -6.4 20.5 1.88 0.074
09:54 1023 30.21 852 25.16 2.3 36.1 52 -6.7 20 2.022 0.08
09:55 1023 30.21 852 25.16 2.5 36.5 52 -6.5 20.3 2.191 0.086
09:56 1023 30.21 852 25.16 2.7 36.9 52 -6.2 20.8 2.304 0.091
09:57 1023 30.21 852 25.16 2.9 37.2 50 -6.5 20.3 2.412 0.095
09:58 1023 30.21 852 25.16 3 37.4 50 -6.5 20.3 2.496 0.098
09:59 1023 30.21 852 25.16 3.1 37.6 49 -6.5 20.4 2.57 0.101
10:00 1023 30.21 852 25.16 3.2 37.7 48 -6.7 19.9 2.603 0.102
10:01 1023 30.21 852 25.16 3.1 37.5 49 -6.7 20 2.602 0.102
10:02 1023 30.21 852 25.16 2.9 37.3 48 -6.9 19.5 2.562 0.101
10:03 1023 30.21 852 25.16 2.9 37.2 49 -6.9 19.6 2.613 0.103
10:04 1023 30.21 852 25.16 2.9 37.3 48 -6.9 19.6 2.617 0.103
10:05 1023 30.21 852 25.16 2.9 37.3 48 -6.9 19.5 2.589 0.102
10:06 1023 30.21 852 25.16 3 37.4 49 -6.8 19.7 2.549 0.1
10:07 1023 30.21 852 25.16 3.1 37.5 47 -7.3 18.9 2.622 0.103
10:08 1023 30.21 852 25.16 3.3 37.9 46 -7.2 19 2.82 0.111
10:09 1023 30.21 852 25.16 3.5 38.3 45 -7.4 18.7 3.023 0.119
10:10 1023 30.21 852 25.16 3.8 38.8 46 -6.8 19.7 3.248 0.128
10:11 1023 30.21 852 25.16 4.1 39.3 46 -6.5 20.2 3.65 0.144
10:12 1023 30.21 852 25.16 4.1 39.5 44 -7 19.4 4.057 0.16
10:13 1023 30.21 852 25.16 4.2 39.5 44 -6.9 19.5 4.288 0.169
10:14 1023 30.21 852 25.16 3.9 39.1 46 -6.8 19.8 4.096 0.161
10:15 1023 30.21 852 25.16 3.7 38.7 45 -7.1 19.2 3.811 0.15
10:16 1023 30.21 852 25.16 3.5 38.3 45 -7.3 18.8 3.613 0.142
10:17 1023 30.21 852 25.16 3.4 38.1 45 -7.5 18.5 3.477 0.137
10:18 1023 30.21 852 25.16 3.3 38 46 -7.3 18.9 3.408 0.134
10:19 1023 30.21 852 25.16 3.4 38 44 -7.7 18.2 3.492 0.137
10:20 1023 30.21 852 25.16 3.6 38.5 44 -7.7 18.2 3.606 0.142
10:21 1023 30.21 852 25.16 3.9 39 43 -7.7 18.2 3.56 0.14
10:22 1023 30.21 852 25.16 4 39.2 43 -7.6 18.3 3.565 0.14
10:23 1023 30.21 852 25.16 4.1 39.4 45 -6.7 20 3.678 0.145
10:24 1023 30.21 852 25.16 4.3 39.8 45 -6.5 20.3 3.931 0.155
10:25 1023 30.21 852 25.16 4.7 40.4 44 -6.6 20.2 4.18 0.165
10:26 1023 30.21 852 25.16 4.9 40.8 41 -7.2 19.1 4.078 0.161
10:27 1023 30.21 852 25.16 4.9 40.8 40 -7.5 18.5 3.98 0.157
10:28 1023 30.21 852 25.16 4.9 40.8 41 -7.2 19 4.054 0.16
10:29 1023 30.21 852 25.16 5.1 41.2 42 -6.9 19.7 4.314 0.17
10:30 1023 30.21 852 25.16 5.3 41.5 43 -6.2 20.9 4.668 0.184
10:31 1023 30.21 852 25.16 5.1 41.1 40 -7.4 18.7 4.73 0.186
10:32 1023 30.21 852 25.16 4.9 40.9 39 -7.8 18 4.735 0.186
10:33 1023 30.21 852 25.16 5 40.9 41 -7.1 19.3 4.801 0.189
10:34 1023 30.21 852 25.16 5.2 41.3 41 -7 19.3 4.977 0.196
10:35 1023 30.21 852 25.16 5.7 42.2 41 -6.6 20.2 5.373 0.212
10:36 1023 30.21 852 25.16 6.1 43.1 38 -7.1 19.1 5.864 0.231
10:37 1023 30.21 852 25.16 6.6 43.9 36 -7.5 18.6 6.141 0.242
10:38 1023 30.21 852 25.16 7 44.7 35 -7.3 18.8 6.277 0.247
10:39 1023 30.21 852 25.16 7.2 45 35 -7.4 18.8 6.27 0.247
10:40 1023 30.21 852 25.16 7.2 45 36 -6.9 19.6 6.185 0.244
10:41 1023 30.21 852 25.16 7.2 44.9 37 -6.6 20.1 6.117 0.241
10:42 1023 30.21 852 25.16 7.2 44.9 36 -6.8 19.7 6.11 0.241
10:43 1023 30.21 852 25.16 7.1 44.9 36 -6.8 19.7 6.122 0.241
10:44 1023 30.21 852 25.16 7.1 44.8 34 -7.6 18.2 6.189 0.244
10:45 1023 30.21 852 25.16 7.2 45 35 -7.4 18.7 6.268 0.247
10:46 1023 30.21 852 25.16 7.3 45.2 35 -7.3 18.9 6.409 0.252
10:47 1023 30.21 852 25.16 7.4 45.3 35 -6.9 19.6 6.516 0.257
10:48 1023 30.21 852 25.16 7.4 45.4 35 -7 19.4 6.567 0.259
10:49 1023 30.21 852 25.16 7.5 45.4 34 -7.4 18.7 6.561 0.258
10:50 1023 30.21 852 25.16 7.4 45.3 35 -6.9 19.5 6.294 0.248
10:51 1023 30.21 852 25.16 7.2 44.9 39 -5.9 21.4 6.18 0.243
10:52 1023 30.21 852 25.16 7.1 44.8 39 -5.9 21.4 6.033 0.238
10:53 1023 30.21 852 25.16 6.8 44.3 38 -6.5 20.3 5.787 0.228
10:54 1023 30.21 852 25.16 6.5 43.7 38 -6.9 19.6 5.401 0.213
10:55 1023 30.21 852 25.16 6.1 43 41 -6 21.2 5.135 0.202
10:56 1023 30.21 852 25.16 5.8 42.4 41 -6.6 20.1 4.935 0.194
10:57 1023 30.21 852 25.16 5.5 41.9 39 -7.4 18.7 4.804 0.189
10:58 1023 30.21 852 25.16 5.2 41.3 42 -6.8 19.8 4.691 0.185
10:59 1023 30.21 852 25.16 5 41.1 40 -7.4 18.7 4.633 0.182
11:00 1023 30.21 852 25.16 4.9 40.9 41 -7.1 19.2 4.587 0.181
11:01 1023 30.21 852 25.16 4.8 40.7 42 -6.9 19.6 4.604 0.181
11:02 1023 30.21 852 25.16 4.7 40.5 41 -7.3 18.8 4.523 0.178
11:03 1023 30.21 852 25.16 4.7 40.5 41 -7.4 18.8 4.494 0.177
11:04 1023 30.21 852 25.16 4.6 40.4 42 -7.1 19.3 4.562 0.18
11:05 1023 30.21 852 25.16 4.7 40.5 44 -6.4 20.5 4.539 0.179
11:06 1023 30.21 852 25.16 4.7 40.5 45 -6.3 20.7 4.493 0.177
11:07 1023 30.21 852 25.16 4.7 40.4 48 -5.3 22.5 4.527 0.178
11:08 1023 30.21 852 25.16 4.7 40.5 45 -6.1 20.9 4.611 0.182
11:09 1023 30.21 852 25.16 4.7 40.5 49 -5.1 22.8 4.6 0.181
11:10 1023 30.21 852 25.16 4.8 40.7 49 -5.1 22.8 4.701 0.185
11:11 1023 30.21 852 25.16 4.8 40.7 48 -5.2 22.6 4.684 0.184
11:12 1023 30.21 852 25.16 4.7 40.5 47 -5.7 21.7 4.621 0.182
11:13 1023 30.21 852 25.16 4.8 40.7 42 -6.9 19.6 4.57 0.18
11:14 1023 30.21 852 25.16 5 41 42 -6.7 19.9 4.597 0.181
11:15 1023 30.21 852 25.16 5.2 41.4 43 -6.4 20.5 4.755 0.187
11:16 1023 30.21 852 25.16 5.2 41.4 46 -5.5 22 4.659 0.183
11:17 1023 30.21 852 25.16 5.1 41.2 47 -5.4 22.3 4.646 0.183
11:18 1023 30.21 852 25.16 5 41 49 -4.9 23.2 4.753 0.187
11:19 1023 30.21 852 25.16 5.1 41.2 45 -5.8 21.5 4.81 0.189
11:20 1023 30.21 852 25.16 5.2 41.3 45 -5.9 21.4 4.82 0.19
11:21 1023 30.21 852 25.16 5.3 41.5 44 -5.9 21.4 4.831 0.19
11:22 1023 30.21 852 25.16 5.3 41.5 45 -5.6 21.8 4.78 0.188
11:23 1023 30.21 852 25.16 5.1 41.1 42 -6.9 19.6 4.564 0.18
11:24 1023 30.21 852 25.16 5 41 44 -6.1 21 4.688 0.185
11:25 1023 30.21 852 25.16 5 40.9 45 -6.1 21.1 4.756 0.187
11:26 1023 30.21 852 25.16 5.1 41.1 44 -6.1 21.1 4.918 0.194
11:27 1023 30.21 852 25.16 5.3 41.5 43 -6.2 20.8 5.031 0.198
11:28 1023 30.21 852 25.16 5.3 41.6 42 -6.6 20 4.991 0.196
11:29 1023 30.21 852 25.16 5.3 41.5 41 -7 19.4 4.967 0.196
11:30 1023 30.21 852 25.16 5.3 41.6 43 -6.3 20.6 4.984 0.196
11:31 1023 30.21 852 25.16 5.3 41.5 47 -5.3 22.5 5.102 0.201
11:32 1023 30.21 852 25.16 5.3 41.5 44 -5.9 21.4 5.197 0.205
11:33 1023 30.21 852 25.16 5.4 41.7 42 -6.5 20.3 5.288 0.208
11:34 1023 30.21 852 25.16 5.3 41.6 44 -5.9 21.4 5.27 0.207
11:35 1023 30.21 852 25.16 5.4 41.7 43 -6.3 20.6 5.349 0.211
11:36 1023 30.21 852 25.16 5.5 41.9 42 -6.5 20.4 5.49 0.216
11:37 1023 30.21 852 25.16 5.6 42.2 40 -6.8 19.7 5.518 0.217
11:38 1023 30.21 852 25.16 5.8 42.5 39 -6.9 19.5 5.693 0.224
11:39 1023 30.21 852 25.16 6.2 43.1 40 -6.5 20.3 6.14 0.242
11:40 1023 30.21 852 25.16 6.6 43.9 38 -6.7 19.9 6.626 0.261
11:41 1023 30.21 852 25.16 6.9 44.5 39 -6.1 21 6.96 0.274
11:42 1023 30.21 852 25.16 7.1 44.7 37 -6.6 20 7.13 0.281
11:43 1023 30.21 852 25.16 7.3 45.1 38 -6.1 21.1 7.19 0.283
11:44 1023 30.21 852 25.16 7.4 45.3 37 -6.2 20.8 7.24 0.285
11:45 1023 30.21 852 25.16 7.5 45.5 36 -6.8 19.8 7.19 0.283
11:46 1023 30.21 852 25.16 7.5 45.5 35 -7 19.4 6.981 0.275
11:47 1023 30.21 852 25.16 7.4 45.4 37 -6.2 20.9 6.749 0.266
11:48 1023 30.21 852 25.16 7.2 45 36 -6.8 19.8 6.602 0.26
11:49 1023 30.21 852 25.16 7.1 44.8 36 -6.9 19.6 6.573 0.259
11:50 1023 30.21 852 25.16 7.2 44.9 36 -6.8 19.8 6.72 0.265
11:51 1023 30.21 852 25.16 7.3 45.1 39 -5.7 21.7 6.754 0.266
11:52 1023 30.21 852 25.16 7.2 45 39 -5.7 21.8 6.816 0.268
11:53 1023 30.21 852 25.16 7.2 45 39 -5.8 21.6 7.05 0.278
11:54 1023 30.21 852 25.16 7.3 45.2 38 -6.2 20.8 7.08 0.279
11:55 1023 30.21 852 25.16 7.4 45.2 36 -6.8 19.8 6.929 0.273
11:56 1023 30.21 852 25.16 7.2 44.9 36 -6.9 19.5 6.601 0.26
11:57 1023 30.21 852 25.16 6.9 44.5 38 -6.3 20.6 6.369 0.251
11:58 1023 30.21 852 25.16 6.7 44.1 42 -5.1 22.8 6.239 0.246
11:59 1023 30.21 852 25.16 6.4 43.5 38 -6.9 19.6 5.928 0.233
12:00 1023 30.21 852 25.16 6.1 42.9 39 -6.9 19.6 5.758 0.227
12:01 1023 30.21 852 25.16 5.9 42.7 40 -6.7 19.9 5.775 0.227
12:02 1023 30.21 852 25.16 5.9 42.6 43 -5.7 21.8 5.82 0.229
12:03 1023 30.21 852 25.16 6 42.7 42 -5.9 21.4 5.922 0.233
12:04 1023 30.21 852 25.16 6 42.9 44 -5.2 22.7 6.006 0.236
12:05 1023 30.21 852 25.16 6.1 43 39 -6.8 19.8 6.069 0.239
12:06 1023 30.21 852 25.16 6.2 43.1 43 -5.5 22.2 6.091 0.24
12:07 1023 30.21 852 25.16 6.1 43.1 44 -5.3 22.5 6.061 0.239
12:08 1023 30.21 852 25.16 6.2 43.1 45 -4.7 23.5 6.078 0.239
12:09 1023 30.21 852 25.16 6.3 43.4 40 -6.2 20.9 6.117 0.241
12:10 1023 30.21 852 25.16 6.3 43.4 39 -6.6 20 5.958 0.235
12:11 1023 30.21 852 25.16 6.3 43.3 42 -5.9 21.5 5.845 0.23
12:12 1023 30.21 852 25.16 6.3 43.4 42 -5.7 21.8 5.799 0.228
12:13 1023 30.21 852 25.16 6.3 43.3 43 -5.4 22.3 5.714 0.225
12:14 1023 30.21 852 25.16 6.3 43.3 39 -6.5 20.2 5.652 0.223
12:15 1023 30.21 852 25.16 6.3 43.3 41 -5.9 21.4 5.594 0.22
12:16 1023 30.21 852 25.16 6.1 43.1 39 -6.9 19.6 5.598 0.22
12:17 1023 30.21 852 25.16 6.1 42.9 39 -7 19.4 5.638 0.222
12:18 1023 30.21 852 25.16 6 42.8 43 -5.5 22.1 5.773 0.227
12:19 1023 30.21 852 25.16 6 42.8 43 -5.7 21.7 5.857 0.231
12:20 1023 30.21 852 25.16 5.9 42.6 41 -6.3 20.7 5.76 0.227
12:21 1023 30.21 852 25.16 5.8 42.4 44 -5.6 22 5.76 0.227
12:22 1023 30.21 852 25.16 5.7 42.3 48 -4.5 23.9 5.685 0.224
12:23 1023 30.21 852 25.16 5.6 42.1 46 -5.2 22.7 5.663 0.223
12:24 1023 30.21 852 25.16 5.6 42 43 -6.1 21 5.6 0.22
12:25 1023 30.21 852 25.16 5.5 42 44 -5.7 21.8 5.661 0.223
12:26 1023 30.21 852 25.16 5.6 42 44 -5.6 22 5.707 0.225
12:27 1023 30.21 852 25.16 5.6 42.1 43 -6.1 21 5.751 0.226
12:28 1023 30.21 852 25.16 5.6 42.1 46 -5.1 22.7 5.768 0.227
12:29 1023 30.21 852 25.16 5.6 42.2 44 -5.8 21.6 5.774 0.227
12:30 1023 30.21 852 25.16 5.7 42.3 41 -6.6 20.1 5.869 0.231
12:31 1023 30.21 852 25.16 5.8 42.4 42 -6.1 20.9 5.959 0.235
12:32 1023 30.21 852 25.16 5.9 42.6 40 -6.6 20.1 6.09 0.24
12:33 1023 30.21 852 25.16 6.1 42.9 41 -6.1 21 6.219 0.245
12:34 1023 30.21 852 25.16 6.1 43 40 -6.6 20.2 6.247 0.246
12:35 1022 30.18 852 25.16 6.2 43.1 43 -5.4 22.3 6.321 0.249
12:36 1022 30.18 852 25.16 6.1 43 43 -5.5 22.1 6.145 0.242
12:37 1022 30.18 852 25.16 5.9 42.7 44 -5.5 22.1 5.992 0.236
12:38 1022 30.18 852 25.16 5.8 42.5 44 -5.6 21.9 5.947 0.234
12:39 1022 30.18 852 25.16 5.9 42.5 42 -5.9 21.3 5.964 0.235
12:40 1022 30.18 852 25.16 6 42.7 43 -5.6 22 6.048 0.238
12:41 1022 30.18 852 25.16 6 42.8 38 -7.2 19 6.122 0.241
12:42 1022 30.18 852 25.16 6.2 43.2 37 -7.3 18.9 6.28 0.247
12:43 1022 30.18 852 25.16 6.4 43.5 38 -7 19.3 6.393 0.252
12:44 1022 30.18 852 25.16 6.4 43.5 40 -6.3 20.7 6.41 0.252
12:45 1022 30.18 852 25.16 6.3 43.3 41 -5.9 21.4 6.28 0.247
12:46 1022 30.18 852 25.16 6.1 43 40 -6.5 20.3 6.189 0.244
12:47 1022 30.18 852 25.16 6.2 43.2 37 -7.5 18.5 6.24 0.246
12:48 1022 30.18 852 25.16 6.4 43.5 39 -6.7 19.9 6.466 0.255
12:49 1022 30.18 852 25.16 6.5 43.8 39 -6.5 20.3 6.591 0.259
12:50 1022 30.18 851 25.13 6.6 43.8 39 -6.5 20.4 6.636 0.261
12:51 1022 30.18 851 25.13 6.6 44 42 -5.5 22.1 6.653 0.262
12:52 1022 30.18 851 25.13 6.5 43.8 43 -5.1 22.8 6.539 0.257
12:53 1022 30.18 851 25.13 6.4 43.5 38 -6.8 19.8 6.421 0.253
12:54 1022 30.18 851 25.13 6.4 43.5 38 -7 19.5 6.409 0.252
12:55 1022 30.18 851 25.13 6.4 43.5 38 -6.8 19.8 6.409 0.252
12:56 1022 30.18 851 25.13 6.4 43.6 38 -6.8 19.7 6.488 0.255
12:57 1022 30.18 851 25.13 6.6 43.8 37 -7.2 19 6.551 0.258
12:58 1022 30.18 851 25.13 6.7 44 43 -5.1 22.8 6.658 0.262
12:59 1022 30.18 851 25.13 6.6 43.8 36 -7.5 18.4 6.522 0.257
13:00 1022 30.18 851 25.13 6.5 43.8 38 -6.9 19.5 6.618 0.261
13:01 1022 30.18 851 25.13 6.7 44 39 -6.3 20.7 6.658 0.262
13:02 1022 30.18 851 25.13 6.8 44.2 40 -5.8 21.6 6.737 0.265
13:03 1022 30.18 851 25.13 6.7 44.1 39 -6.4 20.5 6.675 0.263
13:04 1022 30.18 851 25.13 6.6 44 37 -7.1 19.2 6.669 0.263
13:05 1022 30.18 851 25.13 6.7 44 39 -6.3 20.7 6.709 0.264
13:06 1022 30.18 851 25.13 6.8 44.2 38 -6.5 20.2 6.777 0.267
13:07 1022 30.18 851 25.13 6.9 44.3 41 -5.4 22.2 6.89 0.271
13:08 1022 30.18 851 25.13 6.9 44.4 37 -6.9 19.6 6.856 0.27
13:09 1022 30.18 851 25.13 6.8 44.2 34 -7.8 17.9 6.884 0.271
13:10 1022 30.18 851 25.13 7 44.5 36 -7.1 19.2 7.12 0.28
13:11 1022 30.18 851 25.13 7.1 44.9 39 -5.9 21.3 7.18 0.283
13:12 1022 30.18 851 25.13 7.3 45.1 39 -5.6 21.8 7.33 0.289
13:13 1022 30.18 851 25.13 7.4 45.3 40 -5.3 22.5 7.29 0.287
13:14 1022 30.18 851 25.13 7.2 45 39 -5.9 21.3 7.16 0.282
13:15 1022 30.18 851 25.13 7.2 45 40 -5.4 22.2 7.21 0.284
13:16 1022 30.18 851 25.13 7.2 45 42 -5 23.1 7.21 0.284
13:17 1022 30.18 851 25.13 7.3 45.1 39 -5.8 21.6 7.26 0.286
13:18 1022 30.18 851 25.13 7.2 44.9 42 -4.8 23.4 7.09 0.279
13:19 1022 30.18 851 25.13 7 44.6 41 -5.5 22.1 6.946 0.273
13:20 1022 30.18 851 25.13 6.9 44.4 36 -7.3 18.9 6.94 0.273
13:21 1022 30.18 851 25.13 6.9 44.5 38 -6.3 20.7 7.04 0.277
13:22 1022 30.18 851 25.13 6.9 44.5 41 -5.4 22.3 7.05 0.278
13:23 1022 30.18 851 25.13 6.9 44.4 43 -4.8 23.4 6.952 0.274
13:24 1022 30.18 851 25.13 6.8 44.2 38 -6.5 20.3 6.759 0.266
13:25 1022 30.18 851 25.13 6.7 44 39 -6.3 20.7 6.788 0.267
13:26 1022 30.18 851 25.13 6.8 44.2 41 -5.4 22.2 6.878 0.271
13:27 1022 30.18 851 25.13 6.9 44.4 38 -6.5 20.2 6.946 0.273
13:28 1022 30.18 851 25.13 6.9 44.4 39 -6.2 20.8 7.01 0.276
13:29 1022 30.18 851 25.13 7.1 44.7 37 -6.7 19.9 7.13 0.281
13:30 1022 30.18 851 25.13 7.2 45 37 -6.4 20.5 7.32 0.288
13:31 1022 30.18 851 25.13 7.5 45.5 37 -6.3 20.6 7.61 0.3
13:32 1022 30.18 851 25.13 7.8 46.1 36 -6.3 20.7 7.91 0.311
13:33 1022 30.18 851 25.13 8.1 46.6 37 -5.6 21.9 8.08 0.318
13:34 1022 30.18 851 25.13 8.1 46.5 35 -6.4 20.6 8.01 0.315
13:35 1022 30.18 851 25.13 8.1 46.5 37 -5.6 21.9 7.91 0.311
13:36 1022 30.18 851 25.13 8 46.4 36 -6.3 20.7 7.76 0.306
13:37 1022 30.18 851 25.13 8 46.5 38 -5.6 22 7.68 0.302
13:38 1022 30.18 851 25.13 7.9 46.3 41 -4.5 23.9 7.59 0.299
13:39 1022 30.18 851 25.13 7.9 46.2 39 -5.2 22.7 7.53 0.296
13:40 1022 30.18 851 25.13 7.6 45.7 39 -5.5 22 7.27 0.286
13:41 1022 30.18 851 25.13 7.6 45.6 43 -4.3 24.3 7.36 0.29
13:42 1022 30.18 851 25.13 7.7 45.8 37 -6.2 20.8 7.42 0.292
13:43 1022 30.18 851 25.13 7.7 45.9 32 -8 17.6 7.56 0.298
13:44 1022 30.18 851 25.13 7.9 46.2 34 -6.8 19.7 7.82 0.308
13:45 1022 30.18 851 25.13 8 46.4 38 -5.3 22.4 7.81 0.307
13:46 1022 30.18 851 25.13 8 46.5 37 -5.7 21.8 7.81 0.307
13:47 1022 30.18 851 25.13 8.1 46.5 34 -6.8 19.7 7.91 0.311
13:48 1022 30.18 851 25.13 8.1 46.6 36 -6.1 21 8.05 0.317
13:49 1022 30.18 851 25.13 8.2 46.8 33 -7.1 19.2 8.23 0.324
13:50 1021 30.15 851 25.13 8.4 47.1 33 -7 19.4 8.31 0.327
13:51 1021 30.15 851 25.13 8.5 47.3 32 -7.1 19.2 8.42 0.331
13:52 1021 30.15 851 25.13 8.7 47.6 33 -6.6 20.1 8.43 0.332
13:53 1021 30.15 851 25.13 8.7 47.6 33 -6.7 20 8.48 0.334
13:54 1021 30.15 851 25.13 8.5 47.2 31 -7.8 17.9 8.36 0.329
13:55 1021 30.15 851 25.13 8.4 47.1 35 -6.2 20.8 8.38 0.33
13:56 1021 30.15 851 25.13 8.3 47 33 -6.9 19.5 8.23 0.324
13:57 1021 30.15 851 25.13 8.3 47 35 -6.2 20.8 8.3 0.327
13:58 1021 30.15 851 25.13 8.4 47.1 34 -6.6 20 8.37 0.33
13:59 1021 30.15 851 25.13 8.4 47.1 33 -6.9 19.6 8.38 0.33
14:00 1021 30.15 850 25.1 8.5 47.2 33 -7.1 19.2 8.48 0.334
14:01 1021 30.15 850 25.1 8.6 47.5 31 -7.6 18.3 8.61 0.339
14:02 1021 30.15 850 25.1 8.6 47.5 31 -7.7 18.1 8.66 0.341
14:03 1021 30.15 850 25.1 8.7 47.7 29 -8.2 17.2 8.74 0.344
14:04 1021 30.15 850 25.1 8.8 47.8 29 -8.4 16.8 8.76 0.345
14:05 1021 30.15 850 25.1 8.9 48 28 -8.5 16.7 8.89 0.35
14:06 1021 30.15 850 25.1 9.1 48.4 29 -7.8 17.9 9.02 0.355
14:07 1021 30.15 850 25.1 9.3 48.7 29 -7.9 17.9 9.06 0.357
14:08 1021 30.15 850 25.1 9.2 48.5 31 -7.2 19 8.91 0.351
14:09 1021 30.15 850 25.1 9 48.1 30 -7.6 18.3 8.72 0.343
14:10 1021 30.15 850 25.1 8.9 48.1 36 -5.4 22.2 8.72 0.343
14:11 1021 30.15 850 25.1 8.9 47.9 32 -6.7 19.9 8.69 0.342
14:12 1021 30.15 850 25.1 8.7 47.7 34 -6.3 20.7 8.6 0.339
14:13 1021 30.15 850 25.1 8.9 48 31 -7.2 19 8.81 0.347
14:14 1021 30.15 850 25.1 8.9 48 36 -5.4 22.3 8.69 0.342
14:15 1021 30.15 850 25.1 8.7 47.7 32 -6.9 19.6 8.57 0.337
14:16 1021 30.15 850 25.1 8.6 47.5 30 -8.2 17.3 8.55 0.337
14:17 1021 30.15 850 25.1 8.7 47.6 34 -6.3 20.7 8.67 0.341
14:18 1021 30.15 850 25.1 8.8 47.8 33 -6.8 19.8 8.73 0.344
14:19 1021 30.15 850 25.1 8.8 47.8 34 -6.1 21.1 8.54 0.336
14:20 1021 30.15 850 25.1 8.6 47.4 32 -7.1 19.3 8.51 0.335
14:21 1021 30.15 850 25.1 8.5 47.4 31 -7.7 18.1 8.48 0.334
14:22 1021 30.15 850 25.1 8.6 47.5 30 -8.1 17.5 8.64 0.34
14:23 1021 30.15 850 25.1 8.9 47.9 28 -8.5 16.8 8.86 0.349
14:24 1021 30.15 850 25.1 9.1 48.4 29 -7.9 17.7 9.17 0.361
14:25 1021 30.15 850 25.1 9.5 49.1 30 -7.2 19 9.46 0.372
14:26 1021 30.15 850 25.1 9.7 49.4 32 -6.4 20.5 9.5 0.374
14:27 1021 30.15 850 25.1 9.8 49.7 31 -6.6 20.1 9.65 0.38
14:28 1021 30.15 850 25.1 10.2 50.3 30 -6.8 19.7 9.97 0.393
14:29 1021 30.15 850 25.1 10.6 51 29 -6.9 19.5 10.47 0.412
14:30 1021 30.15 850 25.1 11 51.8 29 -6.5 20.3 10.76 0.424
14:31 1021 30.15 850 25.1 11.3 52.3 28 -6.6 20.1 10.86 0.428
14:32 1021 30.15 850 25.1 11.3 52.4 29 -6.1 21.1 10.89 0.429
14:33 1021 30.15 850 25.1 11.4 52.5 29 -6.1 21 10.94 0.431
14:34 1021 30.15 850 25.1 11.2 52.1 30 -5.8 21.5 10.71 0.422
14:35 1021 30.15 850 25.1 10.9 51.6 28 -6.7 20 10.42 0.41
14:36 1021 30.15 850 25.1 10.6 51.1 27 -7.6 18.3 10.14 0.399
14:37 1021 30.15 850 25.1 10.4 50.8 29 -6.9 19.6 10.07 0.396
14:38 1021 30.15 850 25.1 10.4 50.7 29 -7 19.4 10.1 0.398
14:39 1021 30.15 850 25.1 10.4 50.8 27 -7.6 18.4 10.18 0.401
14:40 1021 30.15 850 25.1 10.6 51 28 -7.2 19 10.26 0.404
14:41 1021 30.15 850 25.1 10.7 51.3 28 -7.2 19 10.36 0.408
14:42 1021 30.15 850 25.1 11 51.8 28 -6.9 19.6 10.63 0.419
14:43 1021 30.15 850 25.1 11.2 52.2 28 -6.6 20.1 10.85 0.427
14:44 1021 30.15 850 25.1 11.2 52.1 26 -7.8 18 10.9 0.429
14:45 1021 30.15 850 25.1 11.2 52.2 25 -7.9 17.9 10.95 0.431
14:46 1021 30.15 850 25.1 11.5 52.7 25 -7.6 18.3 11.22 0.442
14:47 1021 30.15 850 25.1 11.9 53.3 24 -7.8 18 11.41 0.449
14:48 1021 30.15 850 25.1 12.1 53.8 25 -7.3 18.9 11.47 0.452
14:49 1021 30.15 850 25.1 12.1 53.8 26 -6.6 20.2 11.38 0.448
14:50 1021 30.15 850 25.1 11.9 53.4 28 -6.1 21 11.06 0.435
14:51 1021 30.15 850 25.1 11.5 52.8 30 -5.6 22 10.77 0.424
14:52 1021 30.15 850 25.1 11.4 52.4 30 -5.7 21.7 10.67 0.42
14:53 1021 30.15 850 25.1 11.4 52.5 29 -6.1 21 10.96 0.431
14:54 1021 30.15 850 25.1 11.4 52.6 31 -4.9 23.2 11.22 0.442
14:55 1021 30.15 850 25.1 11.4 52.5 31 -5.1 22.9 11.38 0.448
14:56 1021 30.15 850 25.1 11.4 52.5 32 -4.5 23.8 11.52 0.454
14:57 1021 30.15 850 25.1 11.5 52.6 33 -4.2 24.4 11.76 0.463
14:58 1021 30.15 850 25.1 11.7 53.1 32 -4.4 24.1 12.03 0.474
14:59 1021 30.15 850 25.1 12 53.5 33 -3.7 25.4 12.37 0.487
15:00 1021 30.15 850 25.1 12.3 54.1 31 -4.4 24.1 12.75 0.502
15:01 1021 30.15 850 25.1 12.4 54.3 30 -4.9 23.2 13.01 0.512
15:02 1021 30.15 850 25.1 12.2 53.9 29 -5.3 22.5 13.05 0.514
15:03 1021 30.15 850 25.1 12.1 53.8 28 -5.8 21.5 13.08 0.515
15:04 1021 30.15 850 25.1 12.1 53.8 27 -6.3 20.7 13.13 0.517
15:05 1021 30.15 850 25.1 12 53.7 26 -6.8 19.7 12.97 0.511
15:06 1021 30.15 850 25.1 11.9 53.3 29 -5.4 22.2 12.51 0.493
15:07 1021 30.15 850 25.1 11.6 52.9 27 -6.7 19.9 11.98 0.472
15:08 1021 30.15 850 25.1 11.3 52.3 30 -5.5 22.1 11.48 0.452
15:09 1021 30.15 850 25.1 11 51.9 35 -3.6 25.5 11.23 0.442
15:10 1021 30.15 850 25.1 10.6 51 35 -4.2 24.5 10.99 0.433
15:11 1021 30.15 850 25.1 10.2 50.3 38 -3.5 25.6 10.7 0.421
15:12 1021 30.15 850 25.1 9.9 49.8 38 -3.8 25.2 10.52 0.414
15:13 1021 30.15 850 25.1 9.8 49.7 36 -4.6 23.8 10.37 0.408
15:14 1021 30.15 850 25.1 9.7 49.4 38 -3.8 25.2 10.22 0.402
15:15 1021 30.15 850 25.1 9.6 49.3 36 -4.7 23.6 10.16 0.4
15:16 1021 30.15 850 25.1 9.7 49.5 41 -3 26.6 10.19 0.401
15:17 1021 30.15 850 25.1 9.9 49.9 40 -3 26.7 10.33 0.407
15:18 1021 30.15 850 25.1 10.3 50.5 37 -3.8 25.1 10.53 0.415
15:19 1021 30.15 850 25.1 10.6 51 34 -4.8 23.4 10.75 0.423
15:20 1021 30.15 850 25.1 10.6 51.1 30 -6.1 21.1 10.89 0.429
15:21 1021 30.15 850 25.1 10.6 51.1 32 -5.5 22.1 10.97 0.432
15:22 1021 30.15 850 25.1 10.7 51.2 33 -4.9 23.2 11.2 0.441
15:23 1021 30.15 850 25.1 10.8 51.4 33 -4.7 23.5 11.33 0.446
15:24 1020 30.12 850 25.1 11 51.7 32 -5.3 22.5 11.5 0.453
15:25 1020 30.12 850 25.1 11.2 52.1 35 -3.8 25.2 11.79 0.464
15:26 1020 30.12 850 25.1 11.2 52.1 36 -3.4 26 11.92 0.469
15:27 1020 30.12 850 25.1 11.2 52.1 29 -6 21.2 11.89 0.468
15:28 1020 30.12 850 25.1 10.8 51.4 30 -6.2 20.9 11.47 0.452
15:29 1020 30.12 850 25.1 10.3 50.5 34 -4.7 23.5 11.01 0.433
15:30 1020 30.12 850 25.1 9.9 49.9 33 -5.5 22.1 10.74 0.423
15:31 1020 30.12 850 25.1 9.8 49.7 35 -4.9 23.1 10.52 0.414
15:32 1020 30.12 850 25.1 9.6 49.2 35 -5 23 10.24 0.403
15:33 1020 30.12 850 25.1 9.3 48.8 31 -6.9 19.6 10.05 0.396
15:34 1020 30.12 850 25.1 9.2 48.6 36 -5 22.9 9.9 0.39
15:35 1020 30.12 850 25.1 9.2 48.5 38 -4.5 23.8 9.85 0.388
15:36 1020 30.12 850 25.1 9.1 48.3 38 -4.4 24.1 9.73 0.383
15:37 1020 30.12 850 25.1 9 48.2 43 -2.9 26.7 9.7 0.382
15:38 1020 30.12 850 25.1 9.1 48.3 42 -3.3 26.1 9.74 0.383
15:39 1020 30.12 850 25.1 9.1 48.3 40 -3.7 25.3 9.75 0.384
15:40 1020 30.12 850 25.1 8.9 48 38 -4.7 23.6 9.63 0.379
15:41 1020 30.12 850 25.1 8.8 47.8 38 -4.9 23.2 9.49 0.374
15:42 1020 30.12 850 25.1 8.7 47.7 38 -4.7 23.6 9.36 0.369
15:43 1020 30.12 850 25.1 8.7 47.7 41 -3.9 24.9 9.35 0.368
15:44 1020 30.12 850 25.1 8.7 47.7 41 -3.6 25.5 9.32 0.367
15:45 1020 30.12 850 25.1 8.7 47.7 39 -4.4 24.1 9.35 0.368
15:46 1020 30.12 850 25.1 8.7 47.7 40 -4 24.8 9.38 0.369
15:47 1020 30.12 850 25.1 8.8 47.8 38 -4.8 23.3 9.41 0.37
15:48 1020 30.12 850 25.1 8.8 47.8 38 -4.8 23.4 9.5 0.374
15:49 1020 30.12 850 25.1 8.9 48 39 -4.1 24.6 9.57 0.377
15:50 1020 30.12 850 25.1 9 48.2 39 -4.2 24.4 9.73 0.383
15:51 1020 30.12 850 25.1 9.1 48.3 35 -5.6 21.9 9.81 0.386
15:52 1020 30.12 850 25.1 9.1 48.5 33 -6.1 21 9.91 0.39
15:53 1020 30.12 850 25.1 9.2 48.6 31 -6.8 19.7 10.01 0.394
15:54 1020 30.12 850 25.1 9.3 48.8 34 -5.7 21.7 10.14 0.399
15:55 1020 30.12 850 25.1 9.4 48.9 33 -5.9 21.4 10.23 0.403
15:56 1020 30.12 850 25.1 9.4 48.9 31 -6.8 19.8 10.23 0.403
15:57 1020 30.12 850 25.1 9.5 49 31 -7 19.4 10.33 0.407
15:58 1020 30.12 850 25.1 9.6 49.2 30 -7.2 19 10.44 0.411
15:59 1020 30.12 850 25.1 9.7 49.5 33 -5.8 21.5 10.6 0.417
16:00 1020 30.12 849 25.07 9.8 49.7 32 -5.9 21.4 10.76 0.424
16:01 1020 30.12 849 25.07 9.8 49.6 32 -6.2 20.9 10.84 0.427
16:02 1020 30.12 849 25.07 9.8 49.6 35 -4.8 23.3 10.78 0.424
16:03 1020 30.12 849 25.07 9.8 49.6 32 -6 21.3 10.75 0.423
16:04 1020 30.12 849 25.07 9.8 49.7 31 -6.3 20.7 10.73 0.422
16:05 1020 30.12 849 25.07 9.9 49.9 37 -3.9 24.9 10.83 0.426
16:06 1020 30.12 849 25.07 10.1 50.2 33 -5.3 22.5 11.02 0.434
16:07 1020 30.12 849 25.07 10.3 50.6 30 -6.4 20.6 11.26 0.443
16:08 1020 30.12 849 25.07 10.5 50.9 31 -5.9 21.4 11.4 0.449
16:09 1020 30.12 849 25.07 10.7 51.2 29 -6.6 20.1 11.52 0.454
16:10 1020 30.12 849 25.07 10.8 51.4 31 -5.5 22.1 11.55 0.455
16:11 1020 30.12 849 25.07 10.8 51.4 28 -7.1 19.2 11.62 0.457
16:12 1020 30.12 849 25.07 10.9 51.6 32 -5.3 22.4 11.68 0.46
16:13 1020 30.12 849 25.07 11.1 52 31 -5.3 22.5 11.87 0.467
16:14 1020 30.12 849 25.07 11.3 52.3 30 -5.5 22.2 12.1 0.476
16:15 1020 30.12 849 25.07 11.4 52.5 27 -7 19.5 12.2 0.48
16:16 1020 30.12 849 25.07 11.4 52.5 26 -7.3 18.9 12.28 0.483
16:17 1020 30.12 849 25.07 11.4 52.6 30 -5.7 21.7 12.3 0.484
16:18 1020 30.12 849 25.07 11.3 52.4 29 -6.1 20.9 12.17 0.479
16:19 1020 30.12 849 25.07 11.2 52.1 28 -6.5 20.4 11.94 0.47
16:20 1020 30.12 849 25.07 11.1 52 28 -6.5 20.3 11.8 0.465
16:21 1020 30.12 849 25.07 11.1 51.9 30 -5.7 21.8 11.69 0.46
16:22 1020 30.12 849 25.07 10.9 51.7 28 -6.6 20.1 11.57 0.456
16:23 1020 30.12 849 25.07 10.7 51.3 29 -6.4 20.6 11.35 0.447
16:24 1020 30.12 849 25.07 10.6 51.1 31 -5.9 21.4 11.2 0.441
16:25 1020 30.12 849 25.07 10.5 51 29 -6.6 20 11.09 0.437
16:26 1020 30.12 849 25.07 10.6 51.1 28 -7 19.4 11.16 0.439
16:27 1020 30.12 849 25.07 10.8 51.4 28 -7.1 19.2 11.26 0.443
16:28 1020 30.12 849 25.07 10.8 51.5 29 -6.5 20.4 11.33 0.446
16:29 1020 30.12 849 25.07 10.9 51.6 27 -7.4 18.7 11.43 0.45
16:30 1020 30.12 849 25.07 11.1 52 27 -7.2 19.1 11.61 0.457
16:31 1020 30.12 849 25.07 11.6 52.8 26 -7.2 19.1 11.92 0.469
16:32 1020 30.12 849 25.07 12.1 53.8 28 -5.8 21.5 12.35 0.486
16:33 1020 30.12 849 25.07 12.5 54.5 27 -5.8 21.5 12.59 0.496
16:34 1020 30.12 849 25.07 12.4 54.4 30 -4.5 24 12.4 0.488
16:35 1020 30.12 849 25.07 12.2 53.9 31 -4.4 24 12.1 0.476
16:36 1020 30.12 849 25.07 12 53.7 34 -3.1 26.3 11.96 0.471
16:37 1020 30.12 849 25.07 11.8 53.2 29 -5.5 22.1 11.9 0.469
16:38 1020 30.12 849 25.07 11.4 52.5 29 -5.9 21.4 11.67 0.459
16:39 1020 30.12 849 25.07 11.3 52.3 30 -5.5 22.1 11.59 0.456
16:40 1020 30.12 849 25.07 11.4 52.5 26 -7.4 18.7 11.62 0.457
16:41 1020 30.12 849 25.07 11.6 52.9 29 -5.7 21.7 11.88 0.468
16:42 1020 30.12 849 25.07 11.6 52.8 31 -4.8 23.4 11.99 0.472
16:43 1020 30.12 849 25.07 11.3 52.3 32 -4.6 23.7 11.67 0.459
16:44 1020 30.12 849 25.07 10.9 51.7 27 -7.3 18.9 11.18 0.44
16:45 1020 30.12 849 25.07 10.8 51.4 28 -6.8 19.7 10.72 0.422
16:46 1020 30.12 849 25.07 10.6 51 28 -7.2 19 10.44 0.411
16:47 1020 30.12 849 25.07 10.5 50.8 28 -7 19.3 10.31 0.406
16:48 1020 30.12 849 25.07 10.6 51.1 26 -8.1 17.4 10.37 0.408
16:49 1020 30.12 849 25.07 10.8 51.4 25 -8.3 17.1 10.59 0.417
16:50 1020 30.12 849 25.07 11.1 51.9 25 -8.3 17 10.86 0.428
16:51 1020 30.12 849 25.07 11.4 52.5 24 -8.3 17 11.07 0.436
16:52 1020 30.12 849 25.07 11.7 53.1 25 -7.5 18.4 11.28 0.444
16:53 1020 30.12 849 25.07 12.1 53.7 23 -8.4 16.9 11.66 0.459
16:54 1020 30.12 849 25.07 12.5 54.4 22 -8.5 16.6 12.08 0.476
16:55 1020 30.12 849 25.07 12.7 54.8 22 -8.4 16.8 12.05 0.474
16:56 1020 30.12 849 25.07 12.2 53.9 24 -7.8 18 11.47 0.452
16:57 1020 30.12 849 25.07 11.6 52.8 24 -8.2 17.2 11.04 0.435
16:58 1019 30.09 849 25.07 11.2 52.2 26 -7.6 18.2 10.79 0.425
16:59 1019 30.09 849 25.07 11 51.7 26 -7.9 17.7 10.55 0.415
17:00 1019 30.09 849 25.07 10.7 51.2 27 -7.5 18.4 10.56 0.416
17:01 1019 30.09 849 25.07 10.4 50.7 28 -7.3 18.8 10.52 0.414
17:02 1019 30.09 849 25.07 10.2 50.3 28 -7.3 18.8 10.37 0.408
17:03 1019 30.09 849 25.07 10.1 50.1 28 -7.6 18.2 10.16 0.4
17:04 1019 30.09 849 25.07 10.1 50.1 26 -8.6 16.5 10.11 0.398
17:05 1019 30.09 849 25.07 10.1 50.1 27 -8.1 17.4 10.23 0.403
17:06 1019 30.09 849 25.07 10.1 50.3 27 -8 17.6 10.39 0.409
17:07 1019 30.09 849 25.07 10.3 50.5 26 -8.2 17.2 10.66 0.42
17:08 1019 30.09 849 25.07 10.5 50.8 27 -7.9 17.7 10.94 0.431
17:09 1019 30.09 848 25.04 10.5 50.9 26 -8.2 17.2 11.04 0.435
17:10 1019 30.09 848 25.04 10.6 51.1 27 -7.7 18.1 11.15 0.439
17:11 1019 30.09 848 25.04 10.7 51.3 27 -7.5 18.5 11.25 0.443
17:12 1019 30.09 848 25.04 10.8 51.4 28 -7.1 19.2 11.37 0.448
17:13 1019 30.09 848 25.04 10.7 51.2 28 -7.1 19.2 11.35 0.447
17:14 1019 30.09 848 25.04 10.6 51.1 25 -8.6 16.6 11.25 0.443
17:15 1019 30.09 848 25.04 10.4 50.8 32 -5.6 21.9 11.06 0.435
17:16 1019 30.09 848 25.04 10.2 50.3 33 -5.5 22.1 10.76 0.424
17:17 1019 30.09 848 25.04 10 50 31 -6.2 20.8 10.64 0.419
17:18 1019 30.09 848 25.04 10 50.1 35 -4.5 23.8 10.7 0.421
17:19 1019 30.09 848 25.04 10.1 50.3 41 -2.5 27.4 10.96 0.431
17:20 1019 30.09 848 25.04 9.9 49.8 36 -4.3 24.3 10.77 0.424
17:21 1019 30.09 848 25.04 9.5 49 38 -4.2 24.5 10.42 0.41
17:22 1019 30.09 848 25.04 9.3 48.8 36 -5 23.1 10.11 0.398
17:23 1019 30.09 848 25.04 9.3 48.7 30 -7.3 18.9 10.03 0.395
17:24 1019 30.09 848 25.04 9.4 48.9 30 -7.5 18.6 10.02 0.394
17:25 1019 30.09 848 25.04 9.5 49.2 31 -6.8 19.8 10.11 0.398
17:26 1019 30.09 848 25.04 9.6 49.2 31 -6.8 19.8 10.16 0.4
17:27 1019 30.09 848 25.04 9.6 49.3 31 -6.5 20.3 10.2 0.402
17:28 1019 30.09 848 25.04 9.7 49.4 32 -6.4 20.5 10.38 0.409
17:29 1019 30.09 848 25.04 9.7 49.5 33 -5.7 21.7 10.45 0.411
17:30 1019 30.09 848 25.04 9.6 49.3 33 -6.1 21.1 10.37 0.408
17:31 1019 30.09 848 25.04 9.6 49.2 32 -6.3 20.7 10.32 0.406
17:32 1019 30.09 848 25.04 9.8 49.6 31 -6.7 19.9 10.48 0.413
17:33 1019 30.09 848 25.04 10 50 31 -6.3 20.6 10.63 0.419
17:34 1019 30.09 848 25.04 10.2 50.3 38 -3.5 25.7 10.84 0.427
17:35 1019 30.09 848 25.04 10.3 50.5 31 -6.2 20.9 11.13 0.438
17:36 1019 30.09 848 25.04 10.3 50.5 42 -2 28.4 11.22 0.442
17:37 1019 30.09 848 25.04 10.1 50.1 29 -7 19.4 11.06 0.435
17:38 1019 30.09 848 25.04 10.1 50.1 29 -7.1 19.3 10.97 0.432
17:39 1019 30.09 848 25.04 10.1 50.2 30 -6.9 19.6 10.89 0.429
17:40 1019 30.09 848 25.04 10 49.9 33 -5.7 21.7 10.74 0.423
17:41 1019 30.09 848 25.04 9.8 49.6 34 -5.3 22.4 10.48 0.413
17:42 1019 30.09 848 25.04 9.5 49.1 30 -7.2 19 10.05 0.396
17:43 1019 30.09 848 25.04 9.2 48.6 33 -6.2 20.8 9.8 0.386
17:44 1019 30.09 848 25.04 9 48.1 33 -6.6 20 9.47 0.373
17:45 1019 30.09 848 25.04 8.7 47.7 35 -5.8 21.5 9.19 0.362
17:46 1019 30.09 848 25.04 8.5 47.2 37 -5.3 22.4 8.91 0.351
17:47 1019 30.09 848 25.04 8.1 46.5 38 -5.5 22.1 8.56 0.337
17:48 1019 30.09 848 25.04 7.9 46.1 32 -7.6 18.2 8.3 0.327
17:49 1019 30.09 848 25.04 7.8 46 37 -5.9 21.4 8.23 0.324
17:50 1019 30.09 848 25.04 7.5 45.5 37 -6.2 20.9 7.99 0.315
17:51 1019 30.09 848 25.04 7.4 45.3 36 -6.6 20.2 7.85 0.309
17:52 1019 30.09 848 25.04 7.4 45.3 38 -6.2 20.9 7.83 0.308
17:53 1019 30.09 848 25.04 7.3 45.2 40 -5.4 22.2 7.79 0.307
17:54 1019 30.09 848 25.04 7.2 45 39 -5.9 21.5 7.69 0.303
17:55 1019 30.09 848 25.04 7.2 44.9 40 -5.4 22.2 7.61 0.3
17:56 1019 30.09 848 25.04 7.1 44.8 39 -5.9 21.3 7.57 0.298
17:57 1019 30.09 848 25.04 7.1 44.8 39 -5.8 21.6 7.55 0.297
17:58 1019 30.09 848 25.04 7.1 44.8 40 -5.5 22 7.58 0.298
17:59 1019 30.09 848 25.04 7.1 44.8 38 -6.2 20.8 7.57 0.298
18:00 1019 30.09 848 25.04 7.2 45 37 -6.4 20.5 7.67 0.302
18:01 1019 30.09 848 25.04 7.3 45.1 40 -5.3 22.4 7.68 0.302
18:02 1019 30.09 848 25.04 7.1 44.8 43 -4.7 23.5 7.56 0.298
18:03 1019 30.09 848 25.04 6.9 44.4 44 -4.5 24 7.4 0.291
18:04 1019 30.09 848 25.04 6.7 44.1 44 -4.7 23.6 7.24 0.285
18:05 1019 30.09 848 25.04 6.7 44 45 -4.5 23.8 7.11 0.28
18:06 1019 30.09 848 25.04 6.6 43.8 45 -4.6 23.8 7.02 0.276
18:07 1019 30.09 848 25.04 6.5 43.7 44 -4.8 23.3 6.944 0.273
18:08 1019 30.09 848 25.04 6.5 43.7 45 -4.6 23.7 6.944 0.273
18:09 1019 30.09 848 25.04 6.4 43.5 45 -4.7 23.6 6.791 0.267
18:10 1019 30.09 848 25.04 6.3 43.3 46 -4.5 23.9 6.724 0.265
18:11 1019 30.09 848 25.04 6.2 43.1 43 -5.3 22.4 6.605 0.26
18:12 1019 30.09 848 25.04 6.2 43.1 47 -4.3 24.2 6.616 0.26
18:13 1019 30.09 848 25.04 6.2 43.1 43 -5.5 22.1 6.554 0.258
18:14 1019 30.09 848 25.04 6.3 43.3 44 -5 23.1 6.707 0.264
18:15 1019 30.09 848 25.04 6.2 43.2 45 -4.9 23.1 6.713 0.264
18:16 1019 30.09 848 25.04 6.2 43.2 45 -4.7 23.5 6.707 0.264
18:17 1019 30.09 848 25.04 6.2 43.2 44 -5.2 22.6 6.668 0.263
18:18 1019 30.09 848 25.04 6.2 43.1 44 -5.3 22.5 6.651 0.262
18:19 1019 30.09 848 25.04 6.2 43.1 44 -5.2 22.7 6.611 0.26
18:20 1019 30.09 848 25.04 6.2 43.2 44 -5 23 6.595 0.26
18:21 1019 30.09 848 25.04 6.1 43 43 -5.7 21.8 6.527 0.257
18:22 1019 30.09 848 25.04 6 42.8 43 -5.6 21.9 6.402 0.252
18:23 1019 30.09 848 25.04 6 42.7 43 -5.7 21.7 6.38 0.251
18:24 1019 30.09 848 25.04 6 42.8 42 -5.9 21.5 6.414 0.253
18:25 1019 30.09 848 25.04 6.1 42.9 42 -5.8 21.6 6.482 0.255
18:26 1019 30.09 848 25.04 6.1 42.9 41 -6.1 21.1 6.487 0.255
18:27 1019 30.09 848 25.04 6.2 43.1 38 -7 19.4 6.578 0.259
18:28 1019 30.09 848 25.04 6.3 43.3 40 -6.4 20.4 6.714 0.264
18:29 1019 30.09 848 25.04 6.2 43.2 39 -6.6 20.1 6.635 0.261
18:30 1019 30.09 848 25.04 6.2 43.1 42 -5.8 21.5 6.578 0.259
18:31 1019 30.09 848 25.04 6 42.8 42 -6 21.3 6.427 0.253
18:32 1019 30.09 848 25.04 5.8 42.4 46 -5 22.9 6.263 0.247
18:33 1019 30.09 848 25.04 5.5 41.9 46 -5.1 22.8 5.946 0.234
18:34 1019 30.09 848 25.04 5.3 41.5 46 -5.5 22.1 5.715 0.225
18:35 1019 30.09 848 25.04 5.2 41.4 44 -6.1 21 5.676 0.223
18:36 1019 30.09 848 25.04 5.3 41.6 43 -6.3 20.7 5.733 0.226
18:37 1019 30.09 848 25.04 5.4 41.7 42 -6.4 20.4 5.83 0.23
18:38 1019 30.09 848 25.04 5.5 41.9 42 -6.3 20.7 5.92 0.233
18:39 1019 30.09 848 25.04 5.6 42 42 -6.4 20.6 5.932 0.234
18:40 1019 30.09 848 25.04 5.5 41.9 44 -5.9 21.3 5.934 0.234
18:41 1019 30.09 848 25.04 5.4 41.8 43 -6.3 20.7 5.889 0.232
18:42 1019 30.09 848 25.04 5.5 41.8 42 -6.3 20.6 5.889 0.232
18:43 1019 30.09 848 25.04 5.5 42 39 -7.3 18.9 5.942 0.234
18:44 1019 30.09 848 25.04 5.7 42.2 41 -6.5 20.3 6.072 0.239
18:45 1019 30.09 848 25.04 5.6 42.1 42 -6.4 20.4 6.004 0.236
18:46 1019 30.09 848 25.04 5.5 41.9 40 -7 19.4 5.954 0.234
18:47 1019 30.09 848 25.04 5.5 41.9 42 -6.5 20.4 5.915 0.233
18:48 1019 30.09 848 25.04 5.5 41.8 42 -6.5 20.4 5.853 0.23
18:49 1019 30.09 848 25.04 5.4 41.8 42 -6.3 20.6 5.826 0.229
18:50 1019 30.09 848 25.04 5.4 41.8 41 -6.7 20 5.831 0.23
18:51 1019 30.09 848 25.04 5.5 41.9 42 -6.4 20.6 5.866 0.231
18:52 1019 30.09 848 25.04 5.5 41.9 41 -6.8 19.8 5.906 0.233
18:53 1019 30.09 848 25.04 5.5 41.9 41 -6.6 20.1 5.883 0.232
18:54 1019 30.09 848 25.04 5.4 41.8 43 -6.2 20.8 5.821 0.229
18:55 1019 30.09 848 25.04 5.3 41.5 43 -6.2 20.9 5.686 0.224
18:56 1019 30.09 848 25.04 5.1 41.2 45 -5.8 21.5 5.494 0.216
18:57 1019 30.09 848 25.04 5.1 41.2 41 -7.1 19.2 5.494 0.216
18:58 1019 30.09 848 25.04 5.3 41.5 42 -6.5 20.3 5.67 0.223
18:59 1019 30.09 848 25.04 5.3 41.6 44 -6 21.2 5.704 0.225
19:00 1019 30.09 848 25.04 5.3 41.5 43 -6.4 20.5 5.659 0.223
19:01 1019 30.09 848 25.04 5.2 41.3 42 -6.6 20.2 5.574 0.219
19:02 1019 30.09 848 25.04 5.1 41.2 46 -5.6 21.9 5.534 0.218
19:03 1019 30.09 848 25.04 4.8 40.7 47 -5.6 22 5.274 0.208
19:04 1019 30.09 848 25.04 4.6 40.3 48 -5.4 22.2 5.043 0.199
19:05 1019 30.09 848 25.04 4.4 40 48 -5.7 21.7 4.845 0.191
19:06 1019 30.09 848 25.04 4.6 40.2 44 -6.5 20.2 4.958 0.195
19:07 1019 30.09 848 25.04 4.8 40.6 45 -6.1 21 5.167 0.203
19:08 1019 30.09 848 25.04 4.7 40.5 47 -5.7 21.8 5.156 0.203
19:09 1019 30.09 848 25.04 4.6 40.2 47 -5.9 21.4 5.003 0.197
19:10 1019 30.09 848 25.04 4.5 40.2 48 -5.6 21.8 4.964 0.195
19:11 1019 30.09 848 25.04 4.5 40 47 -5.9 21.4 4.868 0.192
19:12 1019 30.09 848 25.04 4.4 39.9 49 -5.5 22.1 4.83 0.19
19:13 1019 30.09 848 25.04 4.2 39.6 50 -5.2 22.6 4.728 0.186
19:14 1019 30.09 848 25.04 4 39.3 50 -5.3 22.4 4.49 0.177
19:15 1019 30.09 848 25.04 4 39.2 49 -5.7 21.7 4.412 0.174
19:16 1019 30.09 848 25.04 4.1 39.4 47 -6.2 20.8 4.537 0.179
19:17 1019 30.09 848 25.04 4.4 39.9 47 -6 21.3 4.724 0.186
19:18 1019 30.09 848 25.04 4.5 40 42 -7.2 19 4.855 0.191
19:19 1019 30.09 848 25.04 4.8 40.6 43 -6.7 20 5.127 0.202
19:20 1019 30.09 848 25.04 4.9 40.9 43 -6.5 20.3 5.279 0.208
19:21 1019 30.09 848 25.04 4.8 40.7 44 -6.3 20.6 5.229 0.206
19:22 1019 30.09 848 25.04 4.8 40.6 43 -6.8 19.7 5.173 0.204
19:23 1019 30.09 848 25.04 4.8 40.6 40 -7.8 18 5.207 0.205
19:24 1019 30.09 848 25.04 4.9 40.9 42 -7 19.4 5.339 0.21
19:25 1019 30.09 848 25.04 5 41 44 -6.2 20.9 5.401 0.213
19:26 1019 30.09 848 25.04 4.9 40.8 42 -6.8 19.7 5.322 0.21
19:27 1019 30.09 848 25.04 4.8 40.6 45 -6.1 20.9 5.233 0.206
19:28 1019 30.09 849 25.07 4.6 40.4 46 -6.1 21 5.052 0.199
19:29 1019 30.09 848 25.04 4.5 40.2 46 -6 21.3 4.939 0.194
19:30 1019 30.09 848 25.04 4.5 40.1 45 -6.5 20.3 4.861 0.191
19:31 1019 30.09 849 25.07 4.5 40 44 -6.7 20 4.884 0.192
19:32 1019 30.09 848 25.04 4.4 39.9 45 -6.6 20.1 4.799 0.189
19:33 1019 30.09 848 25.04 4.4 39.9 42 -7.3 18.8 4.823 0.19
19:34 1019 30.09 848 25.04 4.6 40.2 43 -7 19.4 4.964 0.195
19:35 1019 30.09 849 25.07 4.6 40.3 43 -6.9 19.6 4.976 0.196
19:36 1019 30.09 848 25.04 4.6 40.2 44 -6.7 19.9 4.965 0.195
19:37 1019 30.09 849 25.07 4.4 40 45 -6.5 20.2 4.858 0.191
19:38 1019 30.09 849 25.07 4.4 39.9 41 -7.9 17.8 4.79 0.189
19:39 1019 30.09 849 25.07 4.6 40.3 42 -7.2 19.1 4.977 0.196
19:40 1019 30.09 849 25.07 4.6 40.3 42 -7.1 19.2 5.056 0.199
19:41 1019 30.09 849 25.07 4.7 40.4 43 -6.8 19.8 5.034 0.198
19:42 1019 30.09 849 25.07 4.6 40.2 45 -6.5 20.3 4.938 0.194
19:43 1019 30.09 849 25.07 4.4 39.9 45 -6.7 20 4.848 0.191
19:44 1019 30.09 849 25.07 4.3 39.8 45 -6.7 20 4.729 0.186
19:45 1019 30.09 849 25.07 4.3 39.8 43 -7.2 19 4.724 0.186
19:46 1019 30.09 849 25.07 4.5 40.1 43 -7.1 19.2 4.865 0.192
19:47 1019 30.09 849 25.07 4.5 40.1 45 -6.6 20.2 4.865 0.192
19:48 1019 30.09 849 25.07 4.4 39.8 46 -6.2 20.9 4.781 0.188
19:49 1019 30.09 849 25.07 4.2 39.6 45 -6.6 20.1 4.662 0.184
19:50 1020 30.12 849 25.07 4.3 39.7 44 -7 19.4 4.685 0.184
19:51 1020 30.12 849 25.07 4.3 39.8 45 -6.5 20.4 4.736 0.186
19:52 1020 30.12 849 25.07 4.3 39.7 46 -6.3 20.6 4.656 0.183
19:53 1020 30.12 849 25.07 4.2 39.6 47 -6 21.2 4.634 0.182
19:54 1020 30.12 849 25.07 4.2 39.5 48 -5.8 21.6 4.526 0.178
19:55 1020 30.12 849 25.07 4 39.1 49 -5.7 21.7 4.43 0.174
19:56 1020 30.12 849 25.07 3.9 39 50 -5.6 21.9 4.266 0.168
19:57 1020 30.12 849 25.07 3.8 38.8 51 -5.5 22 4.198 0.165
19:58 1020 30.12 849 25.07 3.8 38.8 49 -6.1 21 4.187 0.165
19:59 1020 30.12 849 25.07 3.9 39 49 -5.9 21.4 4.261 0.168
20:00 1020 30.12 849 25.07 4 39.1 48 -6.1 21 4.346 0.171
20:01 1020 30.12 849 25.07 4 39.3 48 -6 21.2 4.442 0.175
20:02 1020 30.12 849 25.07 4.1 39.4 48 -6 21.3 4.499 0.177
20:03 1020 30.12 849 25.07 4.2 39.5 48 -5.9 21.4 4.595 0.181
20:04 1020 30.12 849 25.07 4.2 39.6 50 -5.2 22.6 4.634 0.182
20:05 1020 30.12 849 25.07 4 39.2 54 -4.5 24 4.465 0.176
20:06 1020 30.12 849 25.07 3.7 38.7 54 -4.7 23.6 4.171 0.164
20:07 1020 30.12 849 25.07 3.5 38.4 52 -5.5 22.1 3.972 0.156
20:08 1020 30.12 849 25.07 3.6 38.5 52 -5.3 22.5 3.973 0.156
20:09 1020 30.12 849 25.07 3.6 38.4 55 -4.7 23.6 4.023 0.158
20:10 1020 30.12 849 25.07 3.4 38.1 56 -4.6 23.7 3.905 0.154
20:11 1020 30.12 849 25.07 3.3 37.9 56 -4.7 23.6 3.769 0.148
20:12 1020 30.12 849 25.07 3.3 37.9 55 -5 23 3.718 0.146
20:13 1020 30.12 849 25.07 3.4 38.1 53 -5.4 22.3 3.769 0.148
20:14 1020 30.12 849 25.07 3.6 38.5 51 -5.6 22 3.974 0.156
20:15 1020 30.12 849 25.07 3.7 38.6 52 -5.2 22.7 4.065 0.16
20:16 1020 30.12 849 25.07 3.7 38.6 51 -5.5 22.1 4.099 0.161
20:17 1020 30.12 849 25.07 3.7 38.7 51 -5.6 22 4.134 0.163
20:18 1020 30.12 849 25.07 3.7 38.7 54 -4.8 23.3 4.156 0.164
20:19 1020 30.12 849 25.07 3.6 38.5 52 -5.3 22.5 4.061 0.16
20:20 1020 30.12 849 25.07 3.5 38.4 56 -4.4 24 3.971 0.156
20:21 1020 30.12 849 25.07 3.4 38.2 55 -4.8 23.4 3.852 0.152
20:22 1020 30.12 849 25.07 3.4 38 50 -6 21.2 3.807 0.15
20:23 1020 30.12 849 25.07 3.5 38.3 55 -4.7 23.5 3.915 0.154
20:24 1020 30.12 849 25.07 3.5 38.3 50 -6 21.2 3.909 0.154
20:25 1020 30.12 849 25.07 3.7 38.7 47 -6.7 19.9 4.006 0.158
20:26 1020 30.12 849 25.07 4 39.3 46 -6.6 20.2 4.363 0.172
20:27 1020 30.12 849 25.07 4.2 39.6 45 -6.5 20.3 4.595 0.181
20:28 1020 30.12 849 25.07 4.3 39.8 45 -6.5 20.3 4.691 0.185
20:29 1020 30.12 849 25.07 4.3 39.8 45 -6.6 20.2 4.708 0.185
20:30 1020 30.12 849 25.07 4.3 39.8 43 -7 19.3 4.748 0.187
20:31 1020 30.12 849 25.07 4.5 40.1 42 -7.5 18.5 4.827 0.19
20:32 1020 30.12 849 25.07 4.7 40.4 41 -7.5 18.5 5.06 0.199
20:33 1020 30.12 849 25.07 4.7 40.5 42 -7.1 19.2 5.088 0.2
20:34 1020 30.12 849 25.07 4.7 40.4 41 -7.3 18.8 5.088 0.2
20:35 1020 30.12 849 25.07 4.9 40.7 36 -9.1 15.6 5.275 0.208
20:36 1020 30.12 849 25.07 5.3 41.5 37 -8.5 16.8 5.643 0.222
20:37 1020 30.12 849 25.07 5.5 41.9 35 -8.8 16.2 5.898 0.232
20:38 1020 30.12 849 25.07 5.6 42 41 -6.8 19.7 5.955 0.234
20:39 1020 30.12 849 25.07 5.3 41.6 40 -7.3 18.8 5.762 0.227
20:40 1020 30.12 849 25.07 5.2 41.4 41 -6.9 19.6 5.638 0.222
20:41 1020 30.12 849 25.07 5.1 41.1 45 -6 21.1 5.468 0.215
20:42 1020 30.12 849 25.07 4.7 40.5 45 -6.1 20.9 5.191 0.204
20:43 1020 30.12 849 25.07 4.7 40.5 44 -6.6 20.2 5.113 0.201
20:44 1020 30.12 849 25.07 4.7 40.4 46 -5.9 21.4 5.113 0.201
20:45 1020 30.12 849 25.07 4.5 40.2 45 -6.3 20.6 4.977 0.196
20:46 1020 30.12 849 25.07 4.5 40 45 -6.3 20.6 4.871 0.192
20:47 1020 30.12 849 25.07 4.5 40 41 -7.6 18.3 4.899 0.193
20:48 1020 30.12 849 25.07 4.6 40.3 47 -5.7 21.7 5.007 0.197
20:49 1020 30.12 849 25.07 4.5 40.1 43 -7 19.5 4.929 0.194
20:50 1020 30.12 849 25.07 4.5 40.1 47 -5.9 21.5 4.912 0.193
20:51 1020 30.12 849 25.07 4.3 39.8 50 -5.2 22.7 4.793 0.189
20:52 1020 30.12 849 25.07 4.1 39.3 50 -5.3 22.4 4.539 0.179
20:53 1020 30.12 849 25.07 4 39.1 46 -6.6 20.2 4.386 0.173
20:54 1020 30.12 849 25.07 4.1 39.4 49 -5.8 21.6 4.522 0.178
20:55 1020 30.12 849 25.07 4.1 39.4 47 -6.1 21.1 4.54 0.179
20:56 1020 30.12 849 25.07 4.2 39.5 47 -6.1 21 4.579 0.18
20:57 1020 30.12 849 25.07 4.1 39.4 49 -5.7 21.7 4.557 0.179
20:58 1020 30.12 849 25.07 4.1 39.3 48 -6 21.1 4.529 0.178
20:59 1020 30.12 849 25.07 4.1 39.5 46 -6.5 20.4 4.523 0.178
21:00 1020 30.12 849 25.07 4.3 39.7 45 -6.5 20.3 4.659 0.183
21:01 1020 30.12 849 25.07 4.4 39.9 46 -6.2 20.8 4.762 0.187
21:02 1020 30.12 849 25.07 4.4 40 46 -6.1 20.9 4.835 0.19
21:03 1020 30.12 849 25.07 4.4 39.9 46 -6.1 21 4.773 0.188
21:04 1020 30.12 849 25.07 4.3 39.7 49 -5.5 22.1 4.734 0.186
21:05 1020 30.12 849 25.07 4.1 39.4 49 -5.7 21.8 4.564 0.18
21:06 1020 30.12 849 25.07 4.1 39.4 47 -6.3 20.7 4.53 0.178
21:07 1020 30.12 849 25.07 4.2 39.6 46 -6.5 20.4 4.615 0.182
21:08 1020 30.12 849 25.07 4.3 39.8 45 -6.6 20 4.711 0.185
21:09 1020 30.12 849 25.07 4.3 39.8 50 -5.1 22.8 4.74 0.187
21:10 1020 30.12 849 25.07 4.1 39.5 46 -6.4 20.5 4.593 0.181
21:11 1020 30.12 850 25.1 4.2 39.5 49 -5.5 22.1 4.587 0.181
21:12 1020 30.12 849 25.07 4 39.3 50 -5.5 22 4.457 0.175
21:13 1020 30.12 849 25.07 3.9 39.1 46 -6.8 19.8 4.321 0.17
21:14 1020 30.12 849 25.07 4 39.2 47 -6.4 20.4 4.361 0.172
21:15 1020 30.12 849 25.07 4.2 39.5 42 -7.6 18.3 4.599 0.181
21:16 1020 30.12 849 25.07 4.5 40.1 43 -7 19.4 4.859 0.191
21:17 1020 30.12 850 25.1 4.6 40.2 47 -5.8 21.6 4.984 0.196
21:18 1020 30.12 850 25.1 4.3 39.8 51 -4.9 23.2 4.818 0.19
21:19 1020 30.12 850 25.1 4.1 39.3 50 -5.3 22.4 4.535 0.179
21:20 1020 30.12 849 25.07 3.9 39 48 -6.2 20.9 4.354 0.171
21:21 1020 30.12 849 25.07 4.1 39.3 46 -6.6 20.2 4.45 0.175
21:22 1020 30.12 849 25.07 4.3 39.7 42 -7.5 18.5 4.637 0.183
21:23 1020 30.12 849 25.07 4.5 40.1 41 -7.5 18.5 4.943 0.195
21:24 1020 30.12 849 25.07 4.6 40.4 42 -7.2 19.1 5.039 0.198
21:25 1020 30.12 849 25.07 4.6 40.3 43 -6.8 19.8 5.039 0.198
21:26 1020 30.12 849 25.07 4.7 40.4 40 -7.8 17.9 5.096 0.201
21:27 1020 30.12 849 25.07 4.8 40.6 42 -6.9 19.6 5.187 0.204
21:28 1020 30.12 849 25.07 4.7 40.5 41 -7.6 18.4 5.113 0.201
21:29 1020 30.12 849 25.07 4.8 40.6 44 -6.4 20.4 5.153 0.203
21:30 1020 30.12 849 25.07 4.7 40.5 44 -6.4 20.4 5.146 0.203
21:31 1020 30.12 849 25.07 4.7 40.5 39 -8.1 17.5 5.123 0.202
21:32 1020 30.12 849 25.07 4.9 40.8 42 -7 19.4 5.254 0.207
21:33 1020 30.12 849 25.07 4.8 40.6 43 -6.6 20.1 5.209 0.205
21:34 1020 30.12 849 25.07 4.7 40.4 43 -6.8 19.8 5.118 0.201
21:35 1020 30.12 849 25.07 4.7 40.4 43 -6.7 19.9 5.078 0.2
21:36 1020 30.12 849 25.07 4.6 40.4 44 -6.7 20 5.085 0.2
21:37 1020 30.12 849 25.07 4.8 40.6 42 -7.1 19.3 5.152 0.203
21:38 1020 30.12 849 25.07 4.9 40.9 40 -7.4 18.6 5.294 0.208
21:39 1020 30.12 849 25.07 5 41 43 -6.6 20.1 5.385 0.212
21:40 1020 30.12 849 25.07 4.9 40.9 44 -6.2 20.9 5.345 0.21
21:41 1020 30.12 849 25.07 4.8 40.6 44 -6.5 20.2 5.209 0.205
21:42 1020 30.12 849 25.07 4.8 40.6 40 -7.7 18.2 5.215 0.205
21:43 1020 30.12 849 25.07 4.8 40.7 41 -7.3 18.9 5.238 0.206
21:44 1020 30.12 849 25.07 4.8 40.6 38 -8.4 17 5.21 0.205
21:45 1020 30.12 849 25.07 5 40.9 43 -6.7 20 5.431 0.214
21:46 1020 30.12 849 25.07 5 41 42 -6.9 19.6 5.397 0.212
21:47 1020 30.12 849 25.07 4.9 40.9 42 -7 19.5 5.329 0.21
21:48 1020 30.12 849 25.07 4.8 40.7 45 -6.1 21.1 5.238 0.206
21:49 1020 30.12 849 25.07 4.6 40.3 45 -6.3 20.7 5.051 0.199
21:50 1020 30.12 849 25.07 4.5 40.2 45 -6.5 20.3 4.96 0.195
21:51 1020 30.12 849 25.07 4.5 40.1 45 -6.3 20.7 4.903 0.193
21:52 1020 30.12 849 25.07 4.4 39.9 49 -5.4 22.3 4.824 0.19
21:53 1020 30.12 849 25.07 4.2 39.5 48 -5.9 21.5 4.602 0.181
21:54 1020 30.12 849 25.07 4.1 39.3 47 -6.2 20.8 4.494 0.177
21:55 1020 30.12 849 25.07 4.1 39.5 47 -6.3 20.7 4.568 0.18
21:56 1020 30.12 849 25.07 4.2 39.6 48 -5.9 21.4 4.585 0.181
21:57 1020 30.12 849 25.07 4.1 39.5 48 -5.8 21.5 4.568 0.18
21:58 1020 30.12 849 25.07 4.1 39.4 43 -7.2 19 4.517 0.178
21:59 1020 30.12 849 25.07 4.3 39.7 45 -6.6 20.2 4.665 0.184
22:00 1020 30.12 849 25.07 4.5 40 45 -6.5 20.3 4.801 0.189
22:01 1020 30.12 849 25.07 4.5 40.1 45 -6.4 20.6 4.863 0.191
22:02 1020 30.12 849 25.07 4.4 40 48 -5.7 21.8 4.829 0.19
22:03 1020 30.12 849 25.07 4.4 39.9 46 -6.1 21 4.8 0.189
22:04 1020 30.12 849 25.07 4.3 39.8 48 -5.8 21.5 4.76 0.187
22:05 1020 30.12 849 25.07 4.3 39.7 50 -5.3 22.5 4.715 0.186
22:06 1020 30.12 849 25.07 4.3 39.7 47 -6.1 21 4.676 0.184
22:07 1020 30.12 849 25.07 4.5 40.1 42 -7.4 18.7 4.863 0.191
22:08 1020 30.12 849 25.07 4.8 40.7 43 -6.6 20 5.225 0.206
22:09 1020 30.12 849 25.07 4.9 40.8 44 -6.3 20.6 5.271 0.208
22:10 1020 30.12 849 25.07 4.9 40.7 44 -6.5 20.4 5.265 0.207
22:11 1020 30.12 849 25.07 4.9 40.9 44 -6.2 20.8 5.305 0.209
22:12 1020 30.12 849 25.07 4.9 40.9 47 -5.5 22 5.345 0.21
22:13 1020 30.12 849 25.07 4.8 40.7 45 -6.1 21 5.26 0.207
22:14 1020 30.12 849 25.07 4.9 40.8 46 -5.9 21.3 5.277 0.208
22:15 1020 30.12 849 25.07 4.8 40.7 47 -5.4 22.3 5.255 0.207
22:16 1020 30.12 849 25.07 4.8 40.6 46 -5.8 21.6 5.153 0.203
22:17 1020 30.12 849 25.07 4.9 40.8 44 -6.3 20.7 5.255 0.207
22:18 1020 30.12 849 25.07 5 41 47 -5.5 22.2 5.368 0.211
22:19 1020 30.12 849 25.07 4.9 40.8 48 -5.2 22.7 5.244 0.206
22:20 1020 30.12 849 25.07 4.8 40.7 47 -5.5 22.1 5.232 0.206
22:21 1020 30.12 849 25.07 4.8 40.7 49 -4.9 23.1 5.295 0.208
22:22 1020 30.12 849 25.07 4.9 40.7 47 -5.5 22.1 5.238 0.206
22:23 1020 30.12 849 25.07 4.8 40.6 45 -6.1 21 5.216 0.205
22:24 1020 30.12 849 25.07 4.8 40.7 48 -5.1 22.8 5.221 0.206
22:25 1020 30.12 849 25.07 4.8 40.6 49 -5.1 22.8 5.153 0.203
22:26 1020 30.12 849 25.07 4.7 40.4 49 -5.3 22.5 5.069 0.2
22:27 1020 30.12 849 25.07 4.7 40.4 49 -5.1 22.8 5.102 0.201
22:28 1020 30.12 849 25.07 4.6 40.3 50 -4.8 23.3 5.012 0.197
22:29 1020 30.12 849 25.07 4.6 40.3 49 -5.1 22.8 5.046 0.199
22:30 1020 30.12 849 25.07 4.6 40.2 48 -5.5 22.2 4.972 0.196
22:31 1020 30.12 849 25.07 4.7 40.4 46 -6.1 21 5.062 0.199
22:32 1020 30.12 849 25.07 4.9 40.8 47 -5.4 22.3 5.294 0.208
22:33 1020 30.12 849 25.07 4.9 40.9 46 -5.6 22 5.373 0.212
22:34 1020 30.12 849 25.07 5 41 48 -5.2 22.6 5.418 0.213
22:35 1019 30.09 849 25.07 5 40.9 49 -4.8 23.3 5.373 0.212
22:36 1019 30.09 849 25.07 4.8 40.6 50 -4.7 23.5 5.181 0.204
22:37 1019 30.09 849 25.07 4.6 40.2 51 -4.7 23.5 5.005 0.197
22:38 1019 30.09 849 25.07 4.4 40 52 -4.5 23.9 4.829 0.19
22:39 1019 30.09 849 25.07 4.3 39.7 52 -4.7 23.5 4.698 0.185
22:40 1019 30.09 849 25.07 4.2 39.6 52 -4.7 23.5 4.636 0.183
22:41 1019 30.09 849 25.07 4.2 39.5 52 -4.8 23.3 4.612 0.182
22:42 1019 30.09 849 25.07 4.2 39.6 51 -5 23.1 4.607 0.181
22:43 1019 30.09 849 25.07 4.2 39.6 53 -4.5 23.8 4.613 0.182
22:44 1019 30.09 849 25.07 4.2 39.5 54 -4.3 24.2 4.557 0.179
22:45 1019 30.09 849 25.07 4 39.2 54 -4.5 23.9 4.449 0.175
22:46 1019 30.09 849 25.07 4 39.2 54 -4.5 23.9 4.375 0.172
22:47 1019 30.09 849 25.07 3.9 39.1 54 -4.6 23.6 4.346 0.171
22:48 1019 30.09 849 25.07 3.9 39 52 -5.1 22.9 4.318 0.17
22:49 1019 30.09 849 25.07 4 39.2 53 -4.6 23.6 4.369 0.172
22:50 1019 30.09 849 25.07 4 39.3 53 -4.7 23.5 4.449 0.175
22:51 1020 30.12 849 25.07 4.2 39.5 51 -5 23 4.556 0.179
22:52 1019 30.09 849 25.07 4.2 39.6 52 -4.8 23.3 4.687 0.185
22:53 1019 30.09 849 25.07 4.2 39.5 51 -4.9 23.1 4.597 0.181
22:54 1019 30.09 849 25.07 4.1 39.4 53 -4.5 23.9 4.574 0.18
22:55 1019 30.09 849 25.07 4 39.2 55 -4.3 24.3 4.433 0.175
22:56 1019 30.09 849 25.07 4 39.1 56 -4 24.9 4.376 0.172
22:57 1019 30.09 849 25.07 3.9 39 57 -3.8 25.2 4.297 0.169
22:58 1019 30.09 849 25.07 3.8 38.8 58 -3.7 25.3 4.247 0.167
22:59 1019 30.09 849 25.07 3.8 38.8 56 -4.2 24.4 4.173 0.164
23:00 1019 30.09 849 25.07 4 39.2 54 -4.4 24.1 4.36 0.172
23:01 1019 30.09 849 25.07 4.3 39.8 54 -4.2 24.4 4.739 0.187
23:02 1019 30.09 849 25.07 4.4 40 54 -4.1 24.5 4.819 0.19
23:03 1019 30.09 849 25.07 4.5 40.1 55 -3.8 25.1 4.87 0.192
23:04 1019 30.09 849 25.07 4.4 39.9 53 -4.2 24.4 4.808 0.189
23:05 1019 30.09 849 25.07 4.5 40.1 54 -4.1 24.7 4.836 0.19
23:06 1019 30.09 849 25.07 4.5 40 55 -3.8 25.1 4.842 0.191
23:07 1019 30.09 849 25.07 4.3 39.7 54 -4.3 24.3 4.689 0.185
23:08 1019 30.09 849 25.07 4.3 39.8 53 -4.3 24.3 4.689 0.185
23:09 1019 30.09 849 25.07 4.4 39.9 55 -3.9 25 4.808 0.189
23:10 1019 30.09 849 25.07 4.3 39.7 54 -4.2 24.4 4.729 0.186
23:11 1019 30.09 849 25.07 4.2 39.6 54 -4.2 24.4 4.649 0.183
23:12 1019 30.09 849 25.07 4.3 39.7 53 -4.4 24.1 4.666 0.184
23:13 1019 30.09 849 25.07 4.4 39.9 53 -4.3 24.3 4.746 0.187
23:14 1019 30.09 849 25.07 4.4 39.9 55 -3.9 25 4.763 0.188
23:15 1019 30.09 849 25.07 4.3 39.7 56 -3.8 25.1 4.684 0.184
23:16 1019 30.09 849 25.07 4.1 39.5 58 -3.4 25.9 4.604 0.181
23:17 1019 30.09 849 25.07 3.9 39 57 -4 24.9 4.316 0.17
23:18 1019 30.09 849 25.07 3.9 39.1 56 -4 24.9 4.35 0.171
23:19 1019 30.09 849 25.07 4.2 39.6 55 -4 24.8 4.571 0.18
23:20 1019 30.09 849 25.07 4.3 39.8 54 -4.2 24.5 4.718 0.186
23:21 1019 30.09 849 25.07 4.4 40 54 -4 24.7 4.808 0.189
23:22 1019 30.09 849 25.07 4.5 40 54 -4.1 24.7 4.876 0.192
23:23 1019 30.09 849 25.07 4.6 40.2 53 -4.2 24.4 4.939 0.194
23:24 1019 30.09 849 25.07 4.7 40.5 52 -4.3 24.3 5.148 0.203
23:25 1019 30.09 849 25.07 4.9 40.7 51 -4.4 24 5.267 0.207
23:26 1019 30.09 849 25.07 5.1 41.3 51 -4.1 24.5 5.556 0.219
23:27 1019 30.09 848 25.04 5.3 41.5 49 -4.6 23.8 5.658 0.223
23:28 1019 30.09 849 25.07 5.3 41.5 52 -3.7 25.4 5.675 0.223
23:29 1019 30.09 849 25.07 5.1 41.2 50 -4.5 23.8 5.505 0.217
23:30 1019 30.09 849 25.07 5.3 41.5 51 -4.1 24.7 5.714 0.225
23:31 1019 30.09 848 25.04 5.3 41.6 51 -4.1 24.7 5.76 0.227
23:32 1019 30.09 849 25.07 5.4 41.8 50 -4.1 24.6 5.816 0.229
23:33 1019 30.09 848 25.04 5.5 41.9 50 -4.1 24.6 5.901 0.232
23:34 1019 30.09 848 25.04 5.4 41.8 51 -3.8 25.1 5.873 0.231
23:35 1019 30.09 848 25.04 5.3 41.5 53 -3.4 25.9 5.709 0.225
23:36 1019 30.09 849 25.07 5 41.1 52 -3.9 25 5.482 0.216
23:37 1019 30.09 848 25.04 5.1 41.3 51 -4.2 24.5 5.584 0.22
23:38 1019 30.09 848 25.04 5.3 41.6 52 -3.6 25.5 5.714 0.225
23:39 1019 30.09 848 25.04 5.2 41.4 51 -4.2 24.4 5.629 0.222
23:40 1019 30.09 848 25.04 5.2 41.4 53 -3.5 25.7 5.646 0.222
23:41 1019 30.09 848 25.04 5.1 41.2 53 -3.8 25.2 5.505 0.217
23:42 1019 30.09 848 25.04 5.1 41.1 52 -3.9 25 5.482 0.216
23:43 1019 30.09 848 25.04 5.2 41.4 52 -4 24.9 5.635 0.222
23:44 1019 30.09 848 25.04 5.3 41.5 52 -3.9 25 5.686 0.224
23:45 1019 30.09 848 25.04 5.4 41.8 51 -3.9 25 5.816 0.229
23:46 1019 30.09 849 25.07 5.4 41.8 53 -3.5 25.7 5.816 0.229
23:47 1019 30.09 848 25.04 5.4 41.8 50 -4 24.7 5.845 0.23
23:48 1019 30.09 848 25.04 5.5 42 49 -4.2 24.4 5.952 0.234
23:49 1019 30.09 849 25.07 5.6 42.1 51 -3.7 25.4 5.986 0.236
23:50 1019 30.09 849 25.07 5.5 42 51 -3.8 25.2 5.93 0.233
23:51 1019 30.09 848 25.04 5.4 41.7 52 -3.6 25.4 5.805 0.229
23:52 1019 30.09 848 25.04 5.3 41.5 52 -3.8 25.2 5.686 0.224
23:53 1019 30.09 848 25.04 5.2 41.4 53 -3.5 25.6 5.635 0.222
23:54 1019 30.09 848 25.04 5.1 41.2 54 -3.4 26 5.567 0.219
23:55 1019 30.09 848 25.04 4.9 40.8 56 -3.1 26.4 5.318 0.209
23:56 1019 30.09 848 25.04 4.7 40.4 57 -3.2 26.3 5.12 0.202
23:57 1019 30.09 848 25.04 4.6 40.2 57 -3.3 26.1 5.001 0.197
23:58 1019 30.09 848 25.04 4.5 40.2 57 -3.3 26.1 4.944 0.195
23:59 1019 30.09 848 25.04 4.6 40.2 55 -3.6 25.5 4.995 0.197
24:00 1019 30.09 848 25.04 4.7 40.5 49 -5.1 22.9 5.086 0.2